<?xml version="1.0" encoding="UTF-8" standalone="no" ?>
<gpx xmlns="http://www.topografix.com/GPX/1/1" xmlns:xsi="http://www.w3.org/2001/XMLSchema-instance" xsi:schemaLocation="http://www.topografix.com/GPX/1/1 http://www.topografix.com/GPX/1/1/gpx.xsd" version="1.1" creator="VisuGPX - https://www.visugpx.com">
  <metadata>
    <name>Rochers de Plautret</name>
    <desc><![CDATA[Boucle au départ du parking de Fournaire (Romeyer) par le col de Vire Sac, le col des Bachassons, les Rochers de Plautret, la cabane du Pison et le Château.]]></desc>
  </metadata>
  <trk>
    <name><![CDATA[2025-09-28_09-10_Sun]]></name>
    <trkseg>
      <trkpt lat="44.80648" lon="5.44656">
        <ele>1002.7</ele>
        <time>2025-09-28T07:14:15Z</time>
      </trkpt>
      <trkpt lat="44.80648" lon="5.44656">
        <ele>1002.7</ele>
        <time>2025-09-28T07:14:36Z</time>
      </trkpt>
      <trkpt lat="44.80638" lon="5.44661">
        <ele>1002.4</ele>
        <time>2025-09-28T07:14:57Z</time>
      </trkpt>
      <trkpt lat="44.80621" lon="5.44652">
        <ele>1007.4</ele>
        <time>2025-09-28T07:15:18Z</time>
      </trkpt>
      <trkpt lat="44.80607" lon="5.44629">
        <ele>1010.9</ele>
        <time>2025-09-28T07:15:39Z</time>
      </trkpt>
      <trkpt lat="44.80598" lon="5.44604">
        <ele>1010.9</ele>
        <time>2025-09-28T07:16:00Z</time>
      </trkpt>
      <trkpt lat="44.80591" lon="5.44571">
        <ele>1012.3</ele>
        <time>2025-09-28T07:16:21Z</time>
      </trkpt>
      <trkpt lat="44.80585" lon="5.44541">
        <ele>1014.4</ele>
        <time>2025-09-28T07:16:42Z</time>
      </trkpt>
      <trkpt lat="44.80572" lon="5.44523">
        <ele>1012.8</ele>
        <time>2025-09-28T07:17:03Z</time>
      </trkpt>
      <trkpt lat="44.80574" lon="5.44554">
        <ele>1010.1</ele>
        <time>2025-09-28T07:17:24Z</time>
      </trkpt>
      <trkpt lat="44.80577" lon="5.44585">
        <ele>1012</ele>
        <time>2025-09-28T07:17:45Z</time>
      </trkpt>
      <trkpt lat="44.80581" lon="5.44613">
        <ele>1015.1</ele>
        <time>2025-09-28T07:18:06Z</time>
      </trkpt>
      <trkpt lat="44.80586" lon="5.44642">
        <ele>1017.6</ele>
        <time>2025-09-28T07:18:27Z</time>
      </trkpt>
      <trkpt lat="44.80588" lon="5.44671">
        <ele>1020</ele>
        <time>2025-09-28T07:18:48Z</time>
      </trkpt>
      <trkpt lat="44.80596" lon="5.44696">
        <ele>1024.7</ele>
        <time>2025-09-28T07:19:09Z</time>
      </trkpt>
      <trkpt lat="44.80605" lon="5.44721">
        <ele>1027.5</ele>
        <time>2025-09-28T07:19:30Z</time>
      </trkpt>
      <trkpt lat="44.8062" lon="5.44745">
        <ele>1030.7</ele>
        <time>2025-09-28T07:19:51Z</time>
      </trkpt>
      <trkpt lat="44.80635" lon="5.44763">
        <ele>1033.4</ele>
        <time>2025-09-28T07:20:12Z</time>
      </trkpt>
      <trkpt lat="44.80648" lon="5.44787">
        <ele>1038.9</ele>
        <time>2025-09-28T07:20:33Z</time>
      </trkpt>
      <trkpt lat="44.80662" lon="5.44809">
        <ele>1043.1</ele>
        <time>2025-09-28T07:20:54Z</time>
      </trkpt>
      <trkpt lat="44.80676" lon="5.44827">
        <ele>1045</ele>
        <time>2025-09-28T07:21:15Z</time>
      </trkpt>
      <trkpt lat="44.80696" lon="5.44839">
        <ele>1047.2</ele>
        <time>2025-09-28T07:21:36Z</time>
      </trkpt>
      <trkpt lat="44.80702" lon="5.44869">
        <ele>1048.9</ele>
        <time>2025-09-28T07:21:57Z</time>
      </trkpt>
      <trkpt lat="44.80704" lon="5.44897">
        <ele>1050.4</ele>
        <time>2025-09-28T07:22:18Z</time>
      </trkpt>
      <trkpt lat="44.807" lon="5.44925">
        <ele>1052</ele>
        <time>2025-09-28T07:22:39Z</time>
      </trkpt>
      <trkpt lat="44.80695" lon="5.44953">
        <ele>1054</ele>
        <time>2025-09-28T07:23:00Z</time>
      </trkpt>
      <trkpt lat="44.80711" lon="5.44971">
        <ele>1058.7</ele>
        <time>2025-09-28T07:23:21Z</time>
      </trkpt>
      <trkpt lat="44.8073" lon="5.44989">
        <ele>1063</ele>
        <time>2025-09-28T07:23:42Z</time>
      </trkpt>
      <trkpt lat="44.80749" lon="5.45003">
        <ele>1067.8</ele>
        <time>2025-09-28T07:24:03Z</time>
      </trkpt>
      <trkpt lat="44.8077" lon="5.45011">
        <ele>1072.2</ele>
        <time>2025-09-28T07:24:24Z</time>
      </trkpt>
      <trkpt lat="44.80789" lon="5.45029">
        <ele>1073.7</ele>
        <time>2025-09-28T07:24:45Z</time>
      </trkpt>
      <trkpt lat="44.80785" lon="5.45049">
        <ele>1078.6</ele>
        <time>2025-09-28T07:25:06Z</time>
      </trkpt>
      <trkpt lat="44.80769" lon="5.45051">
        <ele>1081.2</ele>
        <time>2025-09-28T07:25:27Z</time>
      </trkpt>
      <trkpt lat="44.80776" lon="5.45068">
        <ele>1086.5</ele>
        <time>2025-09-28T07:25:48Z</time>
      </trkpt>
      <trkpt lat="44.80786" lon="5.45073">
        <ele>1092.8</ele>
        <time>2025-09-28T07:26:09Z</time>
      </trkpt>
      <trkpt lat="44.80797" lon="5.45077">
        <ele>1096.1</ele>
        <time>2025-09-28T07:26:30Z</time>
      </trkpt>
      <trkpt lat="44.80811" lon="5.45087">
        <ele>1099</ele>
        <time>2025-09-28T07:26:51Z</time>
      </trkpt>
      <trkpt lat="44.80818" lon="5.45104">
        <ele>1099.4</ele>
        <time>2025-09-28T07:27:12Z</time>
      </trkpt>
      <trkpt lat="44.80815" lon="5.45131">
        <ele>1097.4</ele>
        <time>2025-09-28T07:27:33Z</time>
      </trkpt>
      <trkpt lat="44.80816" lon="5.45157">
        <ele>1099.5</ele>
        <time>2025-09-28T07:27:54Z</time>
      </trkpt>
      <trkpt lat="44.80818" lon="5.45186">
        <ele>1100.1</ele>
        <time>2025-09-28T07:28:15Z</time>
      </trkpt>
      <trkpt lat="44.80815" lon="5.45216">
        <ele>1099.9</ele>
        <time>2025-09-28T07:28:36Z</time>
      </trkpt>
      <trkpt lat="44.80809" lon="5.45245">
        <ele>1102.6</ele>
        <time>2025-09-28T07:28:57Z</time>
      </trkpt>
      <trkpt lat="44.80798" lon="5.45267">
        <ele>1102.4</ele>
        <time>2025-09-28T07:29:18Z</time>
      </trkpt>
      <trkpt lat="44.80782" lon="5.45286">
        <ele>1104.7</ele>
        <time>2025-09-28T07:29:39Z</time>
      </trkpt>
      <trkpt lat="44.80777" lon="5.45312">
        <ele>1107</ele>
        <time>2025-09-28T07:30:00Z</time>
      </trkpt>
      <trkpt lat="44.80759" lon="5.45323">
        <ele>1107.7</ele>
        <time>2025-09-28T07:30:21Z</time>
      </trkpt>
      <trkpt lat="44.80753" lon="5.45343">
        <ele>1111.8</ele>
        <time>2025-09-28T07:30:42Z</time>
      </trkpt>
      <trkpt lat="44.80746" lon="5.45367">
        <ele>1114.4</ele>
        <time>2025-09-28T07:31:03Z</time>
      </trkpt>
      <trkpt lat="44.80744" lon="5.45389">
        <ele>1117.1</ele>
        <time>2025-09-28T07:31:24Z</time>
      </trkpt>
      <trkpt lat="44.80738" lon="5.45396">
        <ele>1119.4</ele>
        <time>2025-09-28T07:31:45Z</time>
      </trkpt>
      <trkpt lat="44.80736" lon="5.45369">
        <ele>1121.8</ele>
        <time>2025-09-28T07:32:06Z</time>
      </trkpt>
      <trkpt lat="44.80739" lon="5.45341">
        <ele>1126</ele>
        <time>2025-09-28T07:32:27Z</time>
      </trkpt>
      <trkpt lat="44.80739" lon="5.45312">
        <ele>1129.1</ele>
        <time>2025-09-28T07:32:48Z</time>
      </trkpt>
      <trkpt lat="44.80751" lon="5.4529">
        <ele>1129.4</ele>
        <time>2025-09-28T07:33:09Z</time>
      </trkpt>
      <trkpt lat="44.80756" lon="5.45261">
        <ele>1133.3</ele>
        <time>2025-09-28T07:33:30Z</time>
      </trkpt>
      <trkpt lat="44.80765" lon="5.45235">
        <ele>1133.1</ele>
        <time>2025-09-28T07:33:51Z</time>
      </trkpt>
      <trkpt lat="44.80771" lon="5.45209">
        <ele>1135.5</ele>
        <time>2025-09-28T07:34:12Z</time>
      </trkpt>
      <trkpt lat="44.80764" lon="5.45191">
        <ele>1140.8</ele>
        <time>2025-09-28T07:34:33Z</time>
      </trkpt>
      <trkpt lat="44.80754" lon="5.45182">
        <ele>1142.7</ele>
        <time>2025-09-28T07:34:54Z</time>
      </trkpt>
      <trkpt lat="44.80745" lon="5.4517">
        <ele>1146.4</ele>
        <time>2025-09-28T07:35:15Z</time>
      </trkpt>
      <trkpt lat="44.80732" lon="5.45156">
        <ele>1150.7</ele>
        <time>2025-09-28T07:35:36Z</time>
      </trkpt>
      <trkpt lat="44.80715" lon="5.45154">
        <ele>1153.4</ele>
        <time>2025-09-28T07:35:57Z</time>
      </trkpt>
      <trkpt lat="44.80697" lon="5.45162">
        <ele>1156.9</ele>
        <time>2025-09-28T07:36:18Z</time>
      </trkpt>
      <trkpt lat="44.80683" lon="5.45144">
        <ele>1160.2</ele>
        <time>2025-09-28T07:36:39Z</time>
      </trkpt>
      <trkpt lat="44.80678" lon="5.45119">
        <ele>1158.7</ele>
        <time>2025-09-28T07:37:00Z</time>
      </trkpt>
      <trkpt lat="44.80671" lon="5.45094">
        <ele>1159.1</ele>
        <time>2025-09-28T07:37:21Z</time>
      </trkpt>
      <trkpt lat="44.8065" lon="5.45088">
        <ele>1161.9</ele>
        <time>2025-09-28T07:37:42Z</time>
      </trkpt>
      <trkpt lat="44.80631" lon="5.45084">
        <ele>1163.4</ele>
        <time>2025-09-28T07:38:03Z</time>
      </trkpt>
      <trkpt lat="44.80611" lon="5.4508">
        <ele>1167.1</ele>
        <time>2025-09-28T07:38:24Z</time>
      </trkpt>
      <trkpt lat="44.80594" lon="5.45085">
        <ele>1167.9</ele>
        <time>2025-09-28T07:38:45Z</time>
      </trkpt>
      <trkpt lat="44.80575" lon="5.45091">
        <ele>1172.1</ele>
        <time>2025-09-28T07:39:06Z</time>
      </trkpt>
      <trkpt lat="44.80566" lon="5.4507">
        <ele>1173.1</ele>
        <time>2025-09-28T07:39:27Z</time>
      </trkpt>
      <trkpt lat="44.8057" lon="5.45041">
        <ele>1173.3</ele>
        <time>2025-09-28T07:39:48Z</time>
      </trkpt>
      <trkpt lat="44.80574" lon="5.45013">
        <ele>1173.2</ele>
        <time>2025-09-28T07:40:09Z</time>
      </trkpt>
      <trkpt lat="44.80565" lon="5.44989">
        <ele>1171.5</ele>
        <time>2025-09-28T07:40:30Z</time>
      </trkpt>
      <trkpt lat="44.80551" lon="5.44967">
        <ele>1173.2</ele>
        <time>2025-09-28T07:40:51Z</time>
      </trkpt>
      <trkpt lat="44.80542" lon="5.44942">
        <ele>1175.4</ele>
        <time>2025-09-28T07:41:12Z</time>
      </trkpt>
      <trkpt lat="44.80529" lon="5.4492">
        <ele>1178.1</ele>
        <time>2025-09-28T07:41:33Z</time>
      </trkpt>
      <trkpt lat="44.80525" lon="5.44889">
        <ele>1178.7</ele>
        <time>2025-09-28T07:41:54Z</time>
      </trkpt>
      <trkpt lat="44.80513" lon="5.44868">
        <ele>1177.3</ele>
        <time>2025-09-28T07:42:15Z</time>
      </trkpt>
      <trkpt lat="44.80495" lon="5.44853">
        <ele>1181.5</ele>
        <time>2025-09-28T07:42:36Z</time>
      </trkpt>
      <trkpt lat="44.80477" lon="5.44833">
        <ele>1183.1</ele>
        <time>2025-09-28T07:42:57Z</time>
      </trkpt>
      <trkpt lat="44.80454" lon="5.44825">
        <ele>1185.4</ele>
        <time>2025-09-28T07:43:18Z</time>
      </trkpt>
      <trkpt lat="44.80435" lon="5.44806">
        <ele>1186</ele>
        <time>2025-09-28T07:43:39Z</time>
      </trkpt>
      <trkpt lat="44.80431" lon="5.44777">
        <ele>1186.9</ele>
        <time>2025-09-28T07:44:00Z</time>
      </trkpt>
      <trkpt lat="44.80422" lon="5.44752">
        <ele>1187.7</ele>
        <time>2025-09-28T07:44:21Z</time>
      </trkpt>
      <trkpt lat="44.80401" lon="5.44741">
        <ele>1186.8</ele>
        <time>2025-09-28T07:44:42Z</time>
      </trkpt>
      <trkpt lat="44.80393" lon="5.44714">
        <ele>1193.6</ele>
        <time>2025-09-28T07:45:03Z</time>
      </trkpt>
      <trkpt lat="44.80399" lon="5.44683">
        <ele>1191.5</ele>
        <time>2025-09-28T07:45:24Z</time>
      </trkpt>
      <trkpt lat="44.804" lon="5.44658">
        <ele>1190.4</ele>
        <time>2025-09-28T07:45:45Z</time>
      </trkpt>
      <trkpt lat="44.8039" lon="5.44636">
        <ele>1189.4</ele>
        <time>2025-09-28T07:46:06Z</time>
      </trkpt>
      <trkpt lat="44.80369" lon="5.44626">
        <ele>1194.2</ele>
        <time>2025-09-28T07:46:27Z</time>
      </trkpt>
      <trkpt lat="44.80352" lon="5.4461">
        <ele>1193.7</ele>
        <time>2025-09-28T07:46:48Z</time>
      </trkpt>
      <trkpt lat="44.80333" lon="5.44592">
        <ele>1198.5</ele>
        <time>2025-09-28T07:47:09Z</time>
      </trkpt>
      <trkpt lat="44.80313" lon="5.44578">
        <ele>1200.8</ele>
        <time>2025-09-28T07:47:30Z</time>
      </trkpt>
      <trkpt lat="44.80303" lon="5.44556">
        <ele>1203</ele>
        <time>2025-09-28T07:47:51Z</time>
      </trkpt>
      <trkpt lat="44.80307" lon="5.44526">
        <ele>1201.8</ele>
        <time>2025-09-28T07:48:12Z</time>
      </trkpt>
      <trkpt lat="44.80295" lon="5.44499">
        <ele>1201.9</ele>
        <time>2025-09-28T07:48:33Z</time>
      </trkpt>
      <trkpt lat="44.80277" lon="5.44488">
        <ele>1202.4</ele>
        <time>2025-09-28T07:48:54Z</time>
      </trkpt>
      <trkpt lat="44.80256" lon="5.4447">
        <ele>1206.1</ele>
        <time>2025-09-28T07:49:15Z</time>
      </trkpt>
      <trkpt lat="44.80237" lon="5.44458">
        <ele>1203.8</ele>
        <time>2025-09-28T07:49:36Z</time>
      </trkpt>
      <trkpt lat="44.80218" lon="5.44443">
        <ele>1208.8</ele>
        <time>2025-09-28T07:49:57Z</time>
      </trkpt>
      <trkpt lat="44.80205" lon="5.44422">
        <ele>1209.3</ele>
        <time>2025-09-28T07:50:18Z</time>
      </trkpt>
      <trkpt lat="44.8019" lon="5.44408">
        <ele>1211.6</ele>
        <time>2025-09-28T07:50:39Z</time>
      </trkpt>
      <trkpt lat="44.80174" lon="5.4439">
        <ele>1212.3</ele>
        <time>2025-09-28T07:51:00Z</time>
      </trkpt>
      <trkpt lat="44.8016" lon="5.44366">
        <ele>1212.5</ele>
        <time>2025-09-28T07:51:21Z</time>
      </trkpt>
      <trkpt lat="44.80149" lon="5.44344">
        <ele>1212</ele>
        <time>2025-09-28T07:51:42Z</time>
      </trkpt>
      <trkpt lat="44.80146" lon="5.44316">
        <ele>1212.6</ele>
        <time>2025-09-28T07:52:03Z</time>
      </trkpt>
      <trkpt lat="44.80131" lon="5.44308">
        <ele>1215</ele>
        <time>2025-09-28T07:52:24Z</time>
      </trkpt>
      <trkpt lat="44.80111" lon="5.44297">
        <ele>1216.1</ele>
        <time>2025-09-28T07:52:45Z</time>
      </trkpt>
      <trkpt lat="44.801" lon="5.44277">
        <ele>1220.5</ele>
        <time>2025-09-28T07:53:06Z</time>
      </trkpt>
      <trkpt lat="44.80093" lon="5.44249">
        <ele>1218.4</ele>
        <time>2025-09-28T07:53:27Z</time>
      </trkpt>
      <trkpt lat="44.80078" lon="5.44225">
        <ele>1221</ele>
        <time>2025-09-28T07:53:48Z</time>
      </trkpt>
      <trkpt lat="44.80062" lon="5.44201">
        <ele>1223</ele>
        <time>2025-09-28T07:54:09Z</time>
      </trkpt>
      <trkpt lat="44.80044" lon="5.44182">
        <ele>1223.7</ele>
        <time>2025-09-28T07:54:30Z</time>
      </trkpt>
      <trkpt lat="44.80034" lon="5.44154">
        <ele>1225</ele>
        <time>2025-09-28T07:54:51Z</time>
      </trkpt>
      <trkpt lat="44.80019" lon="5.4413">
        <ele>1226.2</ele>
        <time>2025-09-28T07:55:12Z</time>
      </trkpt>
      <trkpt lat="44.80003" lon="5.44121">
        <ele>1229.4</ele>
        <time>2025-09-28T07:55:33Z</time>
      </trkpt>
      <trkpt lat="44.79982" lon="5.44113">
        <ele>1232.2</ele>
        <time>2025-09-28T07:55:54Z</time>
      </trkpt>
      <trkpt lat="44.79961" lon="5.441">
        <ele>1236.1</ele>
        <time>2025-09-28T07:56:15Z</time>
      </trkpt>
      <trkpt lat="44.7994" lon="5.44088">
        <ele>1234.5</ele>
        <time>2025-09-28T07:56:36Z</time>
      </trkpt>
      <trkpt lat="44.79917" lon="5.44082">
        <ele>1238.9</ele>
        <time>2025-09-28T07:56:57Z</time>
      </trkpt>
      <trkpt lat="44.79893" lon="5.44075">
        <ele>1240.5</ele>
        <time>2025-09-28T07:57:18Z</time>
      </trkpt>
      <trkpt lat="44.79881" lon="5.44061">
        <ele>1238.7</ele>
        <time>2025-09-28T07:57:39Z</time>
      </trkpt>
      <trkpt lat="44.79892" lon="5.44078">
        <ele>1241</ele>
        <time>2025-09-28T08:00:48Z</time>
      </trkpt>
      <trkpt lat="44.7991" lon="5.44094">
        <ele>1244</ele>
        <time>2025-09-28T08:01:09Z</time>
      </trkpt>
      <trkpt lat="44.79918" lon="5.44103">
        <ele>1243.9</ele>
        <time>2025-09-28T08:01:30Z</time>
      </trkpt>
      <trkpt lat="44.79917" lon="5.44106">
        <ele>1242.2</ele>
        <time>2025-09-28T08:01:51Z</time>
      </trkpt>
      <trkpt lat="44.79932" lon="5.44112">
        <ele>1244.5</ele>
        <time>2025-09-28T08:02:12Z</time>
      </trkpt>
      <trkpt lat="44.79948" lon="5.44127">
        <ele>1244.4</ele>
        <time>2025-09-28T08:02:33Z</time>
      </trkpt>
      <trkpt lat="44.79967" lon="5.44143">
        <ele>1247.8</ele>
        <time>2025-09-28T08:02:54Z</time>
      </trkpt>
      <trkpt lat="44.79986" lon="5.44161">
        <ele>1248.6</ele>
        <time>2025-09-28T08:03:15Z</time>
      </trkpt>
      <trkpt lat="44.80003" lon="5.44183">
        <ele>1247.6</ele>
        <time>2025-09-28T08:03:36Z</time>
      </trkpt>
      <trkpt lat="44.79998" lon="5.44188">
        <ele>1251</ele>
        <time>2025-09-28T08:03:57Z</time>
      </trkpt>
      <trkpt lat="44.79976" lon="5.44177">
        <ele>1255</ele>
        <time>2025-09-28T08:04:18Z</time>
      </trkpt>
      <trkpt lat="44.79954" lon="5.44174">
        <ele>1258.2</ele>
        <time>2025-09-28T08:04:39Z</time>
      </trkpt>
      <trkpt lat="44.79934" lon="5.44167">
        <ele>1260</ele>
        <time>2025-09-28T08:05:00Z</time>
      </trkpt>
      <trkpt lat="44.79913" lon="5.44161">
        <ele>1261.1</ele>
        <time>2025-09-28T08:05:21Z</time>
      </trkpt>
      <trkpt lat="44.79893" lon="5.44151">
        <ele>1260.4</ele>
        <time>2025-09-28T08:05:42Z</time>
      </trkpt>
      <trkpt lat="44.79873" lon="5.44139">
        <ele>1265</ele>
        <time>2025-09-28T08:06:03Z</time>
      </trkpt>
      <trkpt lat="44.79859" lon="5.44116">
        <ele>1268.1</ele>
        <time>2025-09-28T08:06:24Z</time>
      </trkpt>
      <trkpt lat="44.79843" lon="5.44099">
        <ele>1266.7</ele>
        <time>2025-09-28T08:06:45Z</time>
      </trkpt>
      <trkpt lat="44.7983" lon="5.44075">
        <ele>1268.4</ele>
        <time>2025-09-28T08:07:06Z</time>
      </trkpt>
      <trkpt lat="44.79813" lon="5.44057">
        <ele>1268.5</ele>
        <time>2025-09-28T08:07:27Z</time>
      </trkpt>
      <trkpt lat="44.79798" lon="5.44032">
        <ele>1274</ele>
        <time>2025-09-28T08:07:48Z</time>
      </trkpt>
      <trkpt lat="44.7978" lon="5.44016">
        <ele>1274.5</ele>
        <time>2025-09-28T08:08:09Z</time>
      </trkpt>
      <trkpt lat="44.79763" lon="5.44">
        <ele>1276.3</ele>
        <time>2025-09-28T08:08:30Z</time>
      </trkpt>
      <trkpt lat="44.79745" lon="5.43989">
        <ele>1282.2</ele>
        <time>2025-09-28T08:08:51Z</time>
      </trkpt>
      <trkpt lat="44.79726" lon="5.4398">
        <ele>1284.4</ele>
        <time>2025-09-28T08:09:12Z</time>
      </trkpt>
      <trkpt lat="44.79707" lon="5.43966">
        <ele>1289.4</ele>
        <time>2025-09-28T08:09:33Z</time>
      </trkpt>
      <trkpt lat="44.79704" lon="5.43961">
        <ele>1291.2</ele>
        <time>2025-09-28T08:09:54Z</time>
      </trkpt>
      <trkpt lat="44.79717" lon="5.43981">
        <ele>1293.5</ele>
        <time>2025-09-28T08:10:15Z</time>
      </trkpt>
      <trkpt lat="44.79729" lon="5.44001">
        <ele>1296.3</ele>
        <time>2025-09-28T08:10:36Z</time>
      </trkpt>
      <trkpt lat="44.79744" lon="5.44019">
        <ele>1296.8</ele>
        <time>2025-09-28T08:10:57Z</time>
      </trkpt>
      <trkpt lat="44.79751" lon="5.44033">
        <ele>1299.7</ele>
        <time>2025-09-28T08:11:18Z</time>
      </trkpt>
      <trkpt lat="44.79728" lon="5.44029">
        <ele>1303.5</ele>
        <time>2025-09-28T08:11:39Z</time>
      </trkpt>
      <trkpt lat="44.7972" lon="5.44027">
        <ele>1306.8</ele>
        <time>2025-09-28T08:12:00Z</time>
      </trkpt>
      <trkpt lat="44.79736" lon="5.44043">
        <ele>1308.4</ele>
        <time>2025-09-28T08:12:21Z</time>
      </trkpt>
      <trkpt lat="44.79756" lon="5.44052">
        <ele>1309.9</ele>
        <time>2025-09-28T08:12:42Z</time>
      </trkpt>
      <trkpt lat="44.79764" lon="5.44072">
        <ele>1311.1</ele>
        <time>2025-09-28T08:13:03Z</time>
      </trkpt>
      <trkpt lat="44.79774" lon="5.44091">
        <ele>1314.5</ele>
        <time>2025-09-28T08:13:24Z</time>
      </trkpt>
      <trkpt lat="44.7975" lon="5.44081">
        <ele>1318.1</ele>
        <time>2025-09-28T08:13:45Z</time>
      </trkpt>
      <trkpt lat="44.79732" lon="5.44081">
        <ele>1318.9</ele>
        <time>2025-09-28T08:14:06Z</time>
      </trkpt>
      <trkpt lat="44.79758" lon="5.44096">
        <ele>1322.7</ele>
        <time>2025-09-28T08:19:42Z</time>
      </trkpt>
      <trkpt lat="44.79777" lon="5.44111">
        <ele>1325.1</ele>
        <time>2025-09-28T08:20:03Z</time>
      </trkpt>
      <trkpt lat="44.79798" lon="5.44128">
        <ele>1324.8</ele>
        <time>2025-09-28T08:20:24Z</time>
      </trkpt>
      <trkpt lat="44.79816" lon="5.44146">
        <ele>1325.5</ele>
        <time>2025-09-28T08:20:45Z</time>
      </trkpt>
      <trkpt lat="44.79832" lon="5.44169">
        <ele>1327.8</ele>
        <time>2025-09-28T08:21:06Z</time>
      </trkpt>
      <trkpt lat="44.79847" lon="5.44191">
        <ele>1329.4</ele>
        <time>2025-09-28T08:21:27Z</time>
      </trkpt>
      <trkpt lat="44.7985" lon="5.44224">
        <ele>1333.6</ele>
        <time>2025-09-28T08:21:48Z</time>
      </trkpt>
      <trkpt lat="44.79861" lon="5.44249">
        <ele>1336.8</ele>
        <time>2025-09-28T08:22:09Z</time>
      </trkpt>
      <trkpt lat="44.79872" lon="5.44277">
        <ele>1338.5</ele>
        <time>2025-09-28T08:22:30Z</time>
      </trkpt>
      <trkpt lat="44.79884" lon="5.44297">
        <ele>1341.5</ele>
        <time>2025-09-28T08:22:51Z</time>
      </trkpt>
      <trkpt lat="44.7989" lon="5.44314">
        <ele>1343.9</ele>
        <time>2025-09-28T08:23:12Z</time>
      </trkpt>
      <trkpt lat="44.79894" lon="5.44324">
        <ele>1348</ele>
        <time>2025-09-28T08:23:33Z</time>
      </trkpt>
      <trkpt lat="44.79895" lon="5.44331">
        <ele>1347.7</ele>
        <time>2025-09-28T08:23:54Z</time>
      </trkpt>
      <trkpt lat="44.799" lon="5.4435">
        <ele>1353.5</ele>
        <time>2025-09-28T08:24:15Z</time>
      </trkpt>
      <trkpt lat="44.79894" lon="5.44356">
        <ele>1359.7</ele>
        <time>2025-09-28T08:24:36Z</time>
      </trkpt>
      <trkpt lat="44.79873" lon="5.44344">
        <ele>1358.2</ele>
        <time>2025-09-28T08:24:57Z</time>
      </trkpt>
      <trkpt lat="44.79879" lon="5.44357">
        <ele>1364.2</ele>
        <time>2025-09-28T08:25:18Z</time>
      </trkpt>
      <trkpt lat="44.79877" lon="5.44366">
        <ele>1367.1</ele>
        <time>2025-09-28T08:25:39Z</time>
      </trkpt>
      <trkpt lat="44.79862" lon="5.44362">
        <ele>1372.1</ele>
        <time>2025-09-28T08:26:00Z</time>
      </trkpt>
      <trkpt lat="44.79856" lon="5.4436">
        <ele>1368.6</ele>
        <time>2025-09-28T08:26:21Z</time>
      </trkpt>
      <trkpt lat="44.79851" lon="5.44362">
        <ele>1364.9</ele>
        <time>2025-09-28T08:26:42Z</time>
      </trkpt>
      <trkpt lat="44.79849" lon="5.44373">
        <ele>1361.3</ele>
        <time>2025-09-28T08:27:03Z</time>
      </trkpt>
      <trkpt lat="44.79843" lon="5.44371">
        <ele>1354.7</ele>
        <time>2025-09-28T08:27:24Z</time>
      </trkpt>
      <trkpt lat="44.79836" lon="5.44391">
        <ele>1351.3</ele>
        <time>2025-09-28T08:27:45Z</time>
      </trkpt>
      <trkpt lat="44.79831" lon="5.44373">
        <ele>1348.1</ele>
        <time>2025-09-28T08:28:06Z</time>
      </trkpt>
      <trkpt lat="44.7983" lon="5.44388">
        <ele>1339.8</ele>
        <time>2025-09-28T08:28:27Z</time>
      </trkpt>
      <trkpt lat="44.79822" lon="5.44401">
        <ele>1336.1</ele>
        <time>2025-09-28T08:28:48Z</time>
      </trkpt>
      <trkpt lat="44.79821" lon="5.44404">
        <ele>1335.1</ele>
        <time>2025-09-28T08:29:09Z</time>
      </trkpt>
      <trkpt lat="44.79821" lon="5.44404">
        <ele>1334.9</ele>
        <time>2025-09-28T08:29:30Z</time>
      </trkpt>
      <trkpt lat="44.79808" lon="5.44417">
        <ele>1332.1</ele>
        <time>2025-09-28T08:29:51Z</time>
      </trkpt>
      <trkpt lat="44.79794" lon="5.44433">
        <ele>1327.4</ele>
        <time>2025-09-28T08:30:12Z</time>
      </trkpt>
      <trkpt lat="44.79787" lon="5.44463">
        <ele>1319.7</ele>
        <time>2025-09-28T08:30:33Z</time>
      </trkpt>
      <trkpt lat="44.79771" lon="5.44485">
        <ele>1314.1</ele>
        <time>2025-09-28T08:30:54Z</time>
      </trkpt>
      <trkpt lat="44.79763" lon="5.4451">
        <ele>1312.7</ele>
        <time>2025-09-28T08:31:15Z</time>
      </trkpt>
      <trkpt lat="44.79748" lon="5.44526">
        <ele>1310.4</ele>
        <time>2025-09-28T08:31:36Z</time>
      </trkpt>
      <trkpt lat="44.79734" lon="5.44552">
        <ele>1310.4</ele>
        <time>2025-09-28T08:31:57Z</time>
      </trkpt>
      <trkpt lat="44.7973" lon="5.44572">
        <ele>1304.9</ele>
        <time>2025-09-28T08:32:18Z</time>
      </trkpt>
      <trkpt lat="44.79729" lon="5.44574">
        <ele>1304.7</ele>
        <time>2025-09-28T08:33:21Z</time>
      </trkpt>
      <trkpt lat="44.79721" lon="5.44601">
        <ele>1304.9</ele>
        <time>2025-09-28T08:33:42Z</time>
      </trkpt>
      <trkpt lat="44.79699" lon="5.44613">
        <ele>1303</ele>
        <time>2025-09-28T08:34:03Z</time>
      </trkpt>
      <trkpt lat="44.7968" lon="5.44624">
        <ele>1305.9</ele>
        <time>2025-09-28T08:34:24Z</time>
      </trkpt>
      <trkpt lat="44.79663" lon="5.44624">
        <ele>1303.5</ele>
        <time>2025-09-28T08:34:45Z</time>
      </trkpt>
      <trkpt lat="44.7965" lon="5.44633">
        <ele>1303.6</ele>
        <time>2025-09-28T08:35:06Z</time>
      </trkpt>
      <trkpt lat="44.79632" lon="5.44628">
        <ele>1303.4</ele>
        <time>2025-09-28T08:35:27Z</time>
      </trkpt>
      <trkpt lat="44.79613" lon="5.44634">
        <ele>1302.7</ele>
        <time>2025-09-28T08:35:48Z</time>
      </trkpt>
      <trkpt lat="44.79592" lon="5.44628">
        <ele>1302.7</ele>
        <time>2025-09-28T08:36:09Z</time>
      </trkpt>
      <trkpt lat="44.79575" lon="5.44638">
        <ele>1301.8</ele>
        <time>2025-09-28T08:36:30Z</time>
      </trkpt>
      <trkpt lat="44.79558" lon="5.44649">
        <ele>1302.5</ele>
        <time>2025-09-28T08:36:51Z</time>
      </trkpt>
      <trkpt lat="44.79562" lon="5.4468">
        <ele>1302.3</ele>
        <time>2025-09-28T08:37:12Z</time>
      </trkpt>
      <trkpt lat="44.79567" lon="5.44704">
        <ele>1302.1</ele>
        <time>2025-09-28T08:37:33Z</time>
      </trkpt>
      <trkpt lat="44.79584" lon="5.44722">
        <ele>1301.5</ele>
        <time>2025-09-28T08:37:54Z</time>
      </trkpt>
      <trkpt lat="44.79603" lon="5.44744">
        <ele>1302.7</ele>
        <time>2025-09-28T08:38:15Z</time>
      </trkpt>
      <trkpt lat="44.79615" lon="5.44773">
        <ele>1301.5</ele>
        <time>2025-09-28T08:38:36Z</time>
      </trkpt>
      <trkpt lat="44.7963" lon="5.44798">
        <ele>1302</ele>
        <time>2025-09-28T08:38:57Z</time>
      </trkpt>
      <trkpt lat="44.79647" lon="5.44821">
        <ele>1302</ele>
        <time>2025-09-28T08:39:18Z</time>
      </trkpt>
      <trkpt lat="44.79665" lon="5.44843">
        <ele>1301.5</ele>
        <time>2025-09-28T08:39:39Z</time>
      </trkpt>
      <trkpt lat="44.79682" lon="5.4487">
        <ele>1302</ele>
        <time>2025-09-28T08:40:00Z</time>
      </trkpt>
      <trkpt lat="44.79683" lon="5.44905">
        <ele>1302</ele>
        <time>2025-09-28T08:40:21Z</time>
      </trkpt>
      <trkpt lat="44.79689" lon="5.44936">
        <ele>1303.4</ele>
        <time>2025-09-28T08:40:42Z</time>
      </trkpt>
      <trkpt lat="44.79685" lon="5.44965">
        <ele>1304</ele>
        <time>2025-09-28T08:41:03Z</time>
      </trkpt>
      <trkpt lat="44.79668" lon="5.44985">
        <ele>1301.8</ele>
        <time>2025-09-28T08:41:24Z</time>
      </trkpt>
      <trkpt lat="44.79668" lon="5.45007">
        <ele>1301.4</ele>
        <time>2025-09-28T08:41:45Z</time>
      </trkpt>
      <trkpt lat="44.79669" lon="5.4501">
        <ele>1301.5</ele>
        <time>2025-09-28T08:42:06Z</time>
      </trkpt>
      <trkpt lat="44.79679" lon="5.45043">
        <ele>1301.7</ele>
        <time>2025-09-28T08:42:27Z</time>
      </trkpt>
      <trkpt lat="44.79685" lon="5.45075">
        <ele>1301.1</ele>
        <time>2025-09-28T08:42:48Z</time>
      </trkpt>
      <trkpt lat="44.79693" lon="5.45105">
        <ele>1303</ele>
        <time>2025-09-28T08:43:09Z</time>
      </trkpt>
      <trkpt lat="44.79672" lon="5.45126">
        <ele>1301.3</ele>
        <time>2025-09-28T08:43:30Z</time>
      </trkpt>
      <trkpt lat="44.79652" lon="5.45141">
        <ele>1301.2</ele>
        <time>2025-09-28T08:43:51Z</time>
      </trkpt>
      <trkpt lat="44.79633" lon="5.45155">
        <ele>1301.1</ele>
        <time>2025-09-28T08:44:12Z</time>
      </trkpt>
      <trkpt lat="44.79629" lon="5.45187">
        <ele>1299.9</ele>
        <time>2025-09-28T08:44:33Z</time>
      </trkpt>
      <trkpt lat="44.79632" lon="5.45221">
        <ele>1301.2</ele>
        <time>2025-09-28T08:44:54Z</time>
      </trkpt>
      <trkpt lat="44.79633" lon="5.45248">
        <ele>1300.9</ele>
        <time>2025-09-28T08:45:15Z</time>
      </trkpt>
      <trkpt lat="44.79633" lon="5.45252">
        <ele>1300.5</ele>
        <time>2025-09-28T08:45:36Z</time>
      </trkpt>
      <trkpt lat="44.7962" lon="5.45284">
        <ele>1299.6</ele>
        <time>2025-09-28T08:45:57Z</time>
      </trkpt>
      <trkpt lat="44.79611" lon="5.45295">
        <ele>1301.9</ele>
        <time>2025-09-28T08:46:18Z</time>
      </trkpt>
      <trkpt lat="44.79611" lon="5.45294">
        <ele>1300.5</ele>
        <time>2025-09-28T08:46:39Z</time>
      </trkpt>
      <trkpt lat="44.79609" lon="5.45301">
        <ele>1301.3</ele>
        <time>2025-09-28T08:47:00Z</time>
      </trkpt>
      <trkpt lat="44.79604" lon="5.45337">
        <ele>1302.8</ele>
        <time>2025-09-28T08:47:21Z</time>
      </trkpt>
      <trkpt lat="44.79593" lon="5.45371">
        <ele>1303.8</ele>
        <time>2025-09-28T08:47:42Z</time>
      </trkpt>
      <trkpt lat="44.7958" lon="5.454">
        <ele>1305</ele>
        <time>2025-09-28T08:48:03Z</time>
      </trkpt>
      <trkpt lat="44.79581" lon="5.45428">
        <ele>1300</ele>
        <time>2025-09-28T08:48:24Z</time>
      </trkpt>
      <trkpt lat="44.79579" lon="5.45458">
        <ele>1302.3</ele>
        <time>2025-09-28T08:48:45Z</time>
      </trkpt>
      <trkpt lat="44.79566" lon="5.45465">
        <ele>1303.4</ele>
        <time>2025-09-28T08:49:06Z</time>
      </trkpt>
      <trkpt lat="44.79546" lon="5.45461">
        <ele>1301.7</ele>
        <time>2025-09-28T08:49:27Z</time>
      </trkpt>
      <trkpt lat="44.79534" lon="5.45471">
        <ele>1300.2</ele>
        <time>2025-09-28T08:49:48Z</time>
      </trkpt>
      <trkpt lat="44.79528" lon="5.45488">
        <ele>1301.9</ele>
        <time>2025-09-28T08:50:09Z</time>
      </trkpt>
      <trkpt lat="44.79515" lon="5.4551">
        <ele>1302</ele>
        <time>2025-09-28T08:50:30Z</time>
      </trkpt>
      <trkpt lat="44.79493" lon="5.45527">
        <ele>1299.5</ele>
        <time>2025-09-28T08:50:51Z</time>
      </trkpt>
      <trkpt lat="44.79477" lon="5.45543">
        <ele>1297.8</ele>
        <time>2025-09-28T08:51:12Z</time>
      </trkpt>
      <trkpt lat="44.79452" lon="5.45555">
        <ele>1297.6</ele>
        <time>2025-09-28T08:51:33Z</time>
      </trkpt>
      <trkpt lat="44.79431" lon="5.45572">
        <ele>1295.1</ele>
        <time>2025-09-28T08:51:54Z</time>
      </trkpt>
      <trkpt lat="44.79415" lon="5.45598">
        <ele>1294.5</ele>
        <time>2025-09-28T08:52:15Z</time>
      </trkpt>
      <trkpt lat="44.79405" lon="5.4561">
        <ele>1292.6</ele>
        <time>2025-09-28T08:52:36Z</time>
      </trkpt>
      <trkpt lat="44.79392" lon="5.45634">
        <ele>1291.9</ele>
        <time>2025-09-28T08:52:57Z</time>
      </trkpt>
      <trkpt lat="44.79377" lon="5.45665">
        <ele>1292.3</ele>
        <time>2025-09-28T08:53:18Z</time>
      </trkpt>
      <trkpt lat="44.79356" lon="5.45686">
        <ele>1291</ele>
        <time>2025-09-28T08:53:39Z</time>
      </trkpt>
      <trkpt lat="44.79335" lon="5.45708">
        <ele>1290.7</ele>
        <time>2025-09-28T08:54:00Z</time>
      </trkpt>
      <trkpt lat="44.79314" lon="5.45727">
        <ele>1290.1</ele>
        <time>2025-09-28T08:54:21Z</time>
      </trkpt>
      <trkpt lat="44.79298" lon="5.4575">
        <ele>1290.2</ele>
        <time>2025-09-28T08:54:42Z</time>
      </trkpt>
      <trkpt lat="44.79278" lon="5.45771">
        <ele>1291</ele>
        <time>2025-09-28T08:55:03Z</time>
      </trkpt>
      <trkpt lat="44.79255" lon="5.45786">
        <ele>1291</ele>
        <time>2025-09-28T08:55:24Z</time>
      </trkpt>
      <trkpt lat="44.79238" lon="5.45793">
        <ele>1284.5</ele>
        <time>2025-09-28T08:55:45Z</time>
      </trkpt>
      <trkpt lat="44.79239" lon="5.45796">
        <ele>1286.3</ele>
        <time>2025-09-28T08:58:12Z</time>
      </trkpt>
      <trkpt lat="44.79247" lon="5.45796">
        <ele>1288.8</ele>
        <time>2025-09-28T08:58:33Z</time>
      </trkpt>
      <trkpt lat="44.79259" lon="5.45802">
        <ele>1294</ele>
        <time>2025-09-28T08:58:54Z</time>
      </trkpt>
      <trkpt lat="44.79267" lon="5.45806">
        <ele>1296.6</ele>
        <time>2025-09-28T08:59:15Z</time>
      </trkpt>
      <trkpt lat="44.79276" lon="5.4581">
        <ele>1301.5</ele>
        <time>2025-09-28T08:59:36Z</time>
      </trkpt>
      <trkpt lat="44.79285" lon="5.45809">
        <ele>1306.4</ele>
        <time>2025-09-28T08:59:57Z</time>
      </trkpt>
      <trkpt lat="44.79292" lon="5.45823">
        <ele>1308</ele>
        <time>2025-09-28T09:00:18Z</time>
      </trkpt>
      <trkpt lat="44.79295" lon="5.45834">
        <ele>1313.2</ele>
        <time>2025-09-28T09:00:39Z</time>
      </trkpt>
      <trkpt lat="44.79294" lon="5.45846">
        <ele>1318.1</ele>
        <time>2025-09-28T09:01:00Z</time>
      </trkpt>
      <trkpt lat="44.79289" lon="5.45859">
        <ele>1322.3</ele>
        <time>2025-09-28T09:01:21Z</time>
      </trkpt>
      <trkpt lat="44.79283" lon="5.45864">
        <ele>1324.5</ele>
        <time>2025-09-28T09:01:42Z</time>
      </trkpt>
      <trkpt lat="44.79277" lon="5.45868">
        <ele>1323.9</ele>
        <time>2025-09-28T09:02:45Z</time>
      </trkpt>
      <trkpt lat="44.79269" lon="5.45882">
        <ele>1327.9</ele>
        <time>2025-09-28T09:03:06Z</time>
      </trkpt>
      <trkpt lat="44.79257" lon="5.45894">
        <ele>1332.7</ele>
        <time>2025-09-28T09:03:27Z</time>
      </trkpt>
      <trkpt lat="44.79255" lon="5.45908">
        <ele>1334.2</ele>
        <time>2025-09-28T09:03:48Z</time>
      </trkpt>
      <trkpt lat="44.7925" lon="5.45922">
        <ele>1339.6</ele>
        <time>2025-09-28T09:04:09Z</time>
      </trkpt>
      <trkpt lat="44.79244" lon="5.45937">
        <ele>1344.8</ele>
        <time>2025-09-28T09:04:30Z</time>
      </trkpt>
      <trkpt lat="44.79252" lon="5.45943">
        <ele>1348.8</ele>
        <time>2025-09-28T09:04:51Z</time>
      </trkpt>
      <trkpt lat="44.79257" lon="5.45947">
        <ele>1351.7</ele>
        <time>2025-09-28T09:05:12Z</time>
      </trkpt>
      <trkpt lat="44.79258" lon="5.4596">
        <ele>1355.6</ele>
        <time>2025-09-28T09:05:33Z</time>
      </trkpt>
      <trkpt lat="44.79253" lon="5.45971">
        <ele>1360</ele>
        <time>2025-09-28T09:05:54Z</time>
      </trkpt>
      <trkpt lat="44.79241" lon="5.45987">
        <ele>1359.9</ele>
        <time>2025-09-28T09:06:15Z</time>
      </trkpt>
      <trkpt lat="44.79232" lon="5.46002">
        <ele>1360.6</ele>
        <time>2025-09-28T09:06:36Z</time>
      </trkpt>
      <trkpt lat="44.79225" lon="5.46021">
        <ele>1366.6</ele>
        <time>2025-09-28T09:06:57Z</time>
      </trkpt>
      <trkpt lat="44.79216" lon="5.4604">
        <ele>1372.2</ele>
        <time>2025-09-28T09:07:18Z</time>
      </trkpt>
      <trkpt lat="44.79202" lon="5.46061">
        <ele>1373.4</ele>
        <time>2025-09-28T09:07:39Z</time>
      </trkpt>
      <trkpt lat="44.7919" lon="5.46076">
        <ele>1374.9</ele>
        <time>2025-09-28T09:08:00Z</time>
      </trkpt>
      <trkpt lat="44.79177" lon="5.46087">
        <ele>1381.2</ele>
        <time>2025-09-28T09:08:21Z</time>
      </trkpt>
      <trkpt lat="44.79172" lon="5.46098">
        <ele>1384.4</ele>
        <time>2025-09-28T09:08:42Z</time>
      </trkpt>
      <trkpt lat="44.79164" lon="5.46108">
        <ele>1392.1</ele>
        <time>2025-09-28T09:09:03Z</time>
      </trkpt>
      <trkpt lat="44.7915" lon="5.4612">
        <ele>1391.4</ele>
        <time>2025-09-28T09:09:24Z</time>
      </trkpt>
      <trkpt lat="44.7914" lon="5.46124">
        <ele>1397.5</ele>
        <time>2025-09-28T09:09:45Z</time>
      </trkpt>
      <trkpt lat="44.79129" lon="5.46125">
        <ele>1399.1</ele>
        <time>2025-09-28T09:10:06Z</time>
      </trkpt>
      <trkpt lat="44.79117" lon="5.46133">
        <ele>1402.3</ele>
        <time>2025-09-28T09:10:27Z</time>
      </trkpt>
      <trkpt lat="44.79106" lon="5.46142">
        <ele>1405</ele>
        <time>2025-09-28T09:10:48Z</time>
      </trkpt>
      <trkpt lat="44.79099" lon="5.46154">
        <ele>1409.5</ele>
        <time>2025-09-28T09:11:09Z</time>
      </trkpt>
      <trkpt lat="44.79086" lon="5.46164">
        <ele>1409.6</ele>
        <time>2025-09-28T09:11:30Z</time>
      </trkpt>
      <trkpt lat="44.79081" lon="5.46172">
        <ele>1415.6</ele>
        <time>2025-09-28T09:11:51Z</time>
      </trkpt>
      <trkpt lat="44.79081" lon="5.46182">
        <ele>1419.3</ele>
        <time>2025-09-28T09:12:12Z</time>
      </trkpt>
      <trkpt lat="44.79079" lon="5.46191">
        <ele>1422.7</ele>
        <time>2025-09-28T09:12:33Z</time>
      </trkpt>
      <trkpt lat="44.79066" lon="5.46198">
        <ele>1424.6</ele>
        <time>2025-09-28T09:12:54Z</time>
      </trkpt>
      <trkpt lat="44.79054" lon="5.46202">
        <ele>1428.1</ele>
        <time>2025-09-28T09:13:15Z</time>
      </trkpt>
      <trkpt lat="44.79039" lon="5.46201">
        <ele>1431.6</ele>
        <time>2025-09-28T09:13:36Z</time>
      </trkpt>
      <trkpt lat="44.79031" lon="5.46208">
        <ele>1434</ele>
        <time>2025-09-28T09:13:57Z</time>
      </trkpt>
      <trkpt lat="44.79025" lon="5.46216">
        <ele>1437.7</ele>
        <time>2025-09-28T09:14:18Z</time>
      </trkpt>
      <trkpt lat="44.79015" lon="5.46219">
        <ele>1440.2</ele>
        <time>2025-09-28T09:14:39Z</time>
      </trkpt>
      <trkpt lat="44.79008" lon="5.46225">
        <ele>1443.4</ele>
        <time>2025-09-28T09:15:00Z</time>
      </trkpt>
      <trkpt lat="44.78999" lon="5.46229">
        <ele>1446.1</ele>
        <time>2025-09-28T09:15:21Z</time>
      </trkpt>
      <trkpt lat="44.78993" lon="5.46234">
        <ele>1450.6</ele>
        <time>2025-09-28T09:15:42Z</time>
      </trkpt>
      <trkpt lat="44.78987" lon="5.46235">
        <ele>1454.2</ele>
        <time>2025-09-28T09:16:03Z</time>
      </trkpt>
      <trkpt lat="44.78983" lon="5.46239">
        <ele>1456.8</ele>
        <time>2025-09-28T09:16:24Z</time>
      </trkpt>
      <trkpt lat="44.78982" lon="5.46239">
        <ele>1457.5</ele>
        <time>2025-09-28T09:16:45Z</time>
      </trkpt>
      <trkpt lat="44.7898" lon="5.4624">
        <ele>1458.2</ele>
        <time>2025-09-28T09:17:06Z</time>
      </trkpt>
      <trkpt lat="44.7898" lon="5.4624">
        <ele>1458.2</ele>
        <time>2025-09-28T09:17:27Z</time>
      </trkpt>
      <trkpt lat="44.78979" lon="5.46241">
        <ele>1459.6</ele>
        <time>2025-09-28T09:17:48Z</time>
      </trkpt>
      <trkpt lat="44.78983" lon="5.4625">
        <ele>1462.2</ele>
        <time>2025-09-28T09:18:09Z</time>
      </trkpt>
      <trkpt lat="44.78984" lon="5.46254">
        <ele>1464</ele>
        <time>2025-09-28T09:18:30Z</time>
      </trkpt>
      <trkpt lat="44.78983" lon="5.46263">
        <ele>1465.1</ele>
        <time>2025-09-28T09:18:51Z</time>
      </trkpt>
      <trkpt lat="44.78973" lon="5.46263">
        <ele>1467.7</ele>
        <time>2025-09-28T09:19:12Z</time>
      </trkpt>
      <trkpt lat="44.78972" lon="5.46271">
        <ele>1471.5</ele>
        <time>2025-09-28T09:19:33Z</time>
      </trkpt>
      <trkpt lat="44.78967" lon="5.46276">
        <ele>1476.5</ele>
        <time>2025-09-28T09:19:54Z</time>
      </trkpt>
      <trkpt lat="44.78961" lon="5.46279">
        <ele>1479.1</ele>
        <time>2025-09-28T09:20:15Z</time>
      </trkpt>
      <trkpt lat="44.78961" lon="5.46286">
        <ele>1482</ele>
        <time>2025-09-28T09:20:36Z</time>
      </trkpt>
      <trkpt lat="44.78961" lon="5.46294">
        <ele>1483.8</ele>
        <time>2025-09-28T09:20:57Z</time>
      </trkpt>
      <trkpt lat="44.78949" lon="5.4629">
        <ele>1486.2</ele>
        <time>2025-09-28T09:21:18Z</time>
      </trkpt>
      <trkpt lat="44.78939" lon="5.46283">
        <ele>1489.1</ele>
        <time>2025-09-28T09:21:39Z</time>
      </trkpt>
      <trkpt lat="44.7893" lon="5.46279">
        <ele>1492.5</ele>
        <time>2025-09-28T09:22:00Z</time>
      </trkpt>
      <trkpt lat="44.7892" lon="5.4628">
        <ele>1495.8</ele>
        <time>2025-09-28T09:22:21Z</time>
      </trkpt>
      <trkpt lat="44.78911" lon="5.46285">
        <ele>1498.6</ele>
        <time>2025-09-28T09:22:42Z</time>
      </trkpt>
      <trkpt lat="44.78905" lon="5.4629">
        <ele>1503.4</ele>
        <time>2025-09-28T09:23:03Z</time>
      </trkpt>
      <trkpt lat="44.78897" lon="5.46286">
        <ele>1507.9</ele>
        <time>2025-09-28T09:23:24Z</time>
      </trkpt>
      <trkpt lat="44.78888" lon="5.46284">
        <ele>1512.6</ele>
        <time>2025-09-28T09:23:45Z</time>
      </trkpt>
      <trkpt lat="44.78878" lon="5.46273">
        <ele>1517</ele>
        <time>2025-09-28T09:24:06Z</time>
      </trkpt>
      <trkpt lat="44.7887" lon="5.46269">
        <ele>1520.2</ele>
        <time>2025-09-28T09:24:27Z</time>
      </trkpt>
      <trkpt lat="44.78861" lon="5.46263">
        <ele>1523</ele>
        <time>2025-09-28T09:24:48Z</time>
      </trkpt>
      <trkpt lat="44.78854" lon="5.46254">
        <ele>1526.5</ele>
        <time>2025-09-28T09:25:09Z</time>
      </trkpt>
      <trkpt lat="44.78849" lon="5.46255">
        <ele>1529.9</ele>
        <time>2025-09-28T09:25:30Z</time>
      </trkpt>
      <trkpt lat="44.78843" lon="5.46249">
        <ele>1533.4</ele>
        <time>2025-09-28T09:25:51Z</time>
      </trkpt>
      <trkpt lat="44.7884" lon="5.4624">
        <ele>1535.8</ele>
        <time>2025-09-28T09:26:12Z</time>
      </trkpt>
      <trkpt lat="44.78832" lon="5.46234">
        <ele>1537.6</ele>
        <time>2025-09-28T09:26:33Z</time>
      </trkpt>
      <trkpt lat="44.78828" lon="5.46234">
        <ele>1540.1</ele>
        <time>2025-09-28T09:26:54Z</time>
      </trkpt>
      <trkpt lat="44.78826" lon="5.4623">
        <ele>1541.3</ele>
        <time>2025-09-28T09:27:15Z</time>
      </trkpt>
      <trkpt lat="44.78821" lon="5.46224">
        <ele>1543.8</ele>
        <time>2025-09-28T09:27:36Z</time>
      </trkpt>
      <trkpt lat="44.78819" lon="5.46209">
        <ele>1545.6</ele>
        <time>2025-09-28T09:27:57Z</time>
      </trkpt>
      <trkpt lat="44.78822" lon="5.4619">
        <ele>1548.5</ele>
        <time>2025-09-28T09:28:18Z</time>
      </trkpt>
      <trkpt lat="44.78819" lon="5.46193">
        <ele>1550</ele>
        <time>2025-09-28T09:28:39Z</time>
      </trkpt>
      <trkpt lat="44.78818" lon="5.46195">
        <ele>1550.9</ele>
        <time>2025-09-28T09:29:42Z</time>
      </trkpt>
      <trkpt lat="44.78817" lon="5.46201">
        <ele>1551.7</ele>
        <time>2025-09-28T09:30:03Z</time>
      </trkpt>
      <trkpt lat="44.78816" lon="5.4622">
        <ele>1551.7</ele>
        <time>2025-09-28T09:30:24Z</time>
      </trkpt>
      <trkpt lat="44.78815" lon="5.46235">
        <ele>1553.8</ele>
        <time>2025-09-28T09:30:45Z</time>
      </trkpt>
      <trkpt lat="44.78816" lon="5.46253">
        <ele>1555.7</ele>
        <time>2025-09-28T09:31:06Z</time>
      </trkpt>
      <trkpt lat="44.78818" lon="5.46267">
        <ele>1558.1</ele>
        <time>2025-09-28T09:31:27Z</time>
      </trkpt>
      <trkpt lat="44.78827" lon="5.46281">
        <ele>1560.5</ele>
        <time>2025-09-28T09:31:48Z</time>
      </trkpt>
      <trkpt lat="44.78836" lon="5.46289">
        <ele>1564.1</ele>
        <time>2025-09-28T09:32:09Z</time>
      </trkpt>
      <trkpt lat="44.78847" lon="5.46289">
        <ele>1566.6</ele>
        <time>2025-09-28T09:32:30Z</time>
      </trkpt>
      <trkpt lat="44.78859" lon="5.4629">
        <ele>1570.3</ele>
        <time>2025-09-28T09:32:51Z</time>
      </trkpt>
      <trkpt lat="44.78868" lon="5.46302">
        <ele>1572.5</ele>
        <time>2025-09-28T09:33:12Z</time>
      </trkpt>
      <trkpt lat="44.78869" lon="5.46314">
        <ele>1576.9</ele>
        <time>2025-09-28T09:33:33Z</time>
      </trkpt>
      <trkpt lat="44.78871" lon="5.46326">
        <ele>1579.7</ele>
        <time>2025-09-28T09:33:54Z</time>
      </trkpt>
      <trkpt lat="44.78867" lon="5.46334">
        <ele>1583</ele>
        <time>2025-09-28T09:34:15Z</time>
      </trkpt>
      <trkpt lat="44.78859" lon="5.46338">
        <ele>1585.1</ele>
        <time>2025-09-28T09:34:36Z</time>
      </trkpt>
      <trkpt lat="44.78859" lon="5.4634">
        <ele>1586.2</ele>
        <time>2025-09-28T09:34:57Z</time>
      </trkpt>
      <trkpt lat="44.78859" lon="5.46348">
        <ele>1588.8</ele>
        <time>2025-09-28T09:35:18Z</time>
      </trkpt>
      <trkpt lat="44.78859" lon="5.46363">
        <ele>1591.9</ele>
        <time>2025-09-28T09:35:39Z</time>
      </trkpt>
      <trkpt lat="44.78857" lon="5.46376">
        <ele>1596</ele>
        <time>2025-09-28T09:36:00Z</time>
      </trkpt>
      <trkpt lat="44.78861" lon="5.46389">
        <ele>1599.1</ele>
        <time>2025-09-28T09:36:21Z</time>
      </trkpt>
      <trkpt lat="44.78871" lon="5.46402">
        <ele>1599</ele>
        <time>2025-09-28T09:36:42Z</time>
      </trkpt>
      <trkpt lat="44.78884" lon="5.46404">
        <ele>1596.9</ele>
        <time>2025-09-28T09:37:03Z</time>
      </trkpt>
      <trkpt lat="44.78901" lon="5.46414">
        <ele>1599.1</ele>
        <time>2025-09-28T09:37:24Z</time>
      </trkpt>
      <trkpt lat="44.78916" lon="5.46424">
        <ele>1603</ele>
        <time>2025-09-28T09:37:45Z</time>
      </trkpt>
      <trkpt lat="44.78928" lon="5.46434">
        <ele>1607.2</ele>
        <time>2025-09-28T09:38:06Z</time>
      </trkpt>
      <trkpt lat="44.78941" lon="5.46444">
        <ele>1609.8</ele>
        <time>2025-09-28T09:38:27Z</time>
      </trkpt>
      <trkpt lat="44.78953" lon="5.46452">
        <ele>1612.3</ele>
        <time>2025-09-28T09:38:48Z</time>
      </trkpt>
      <trkpt lat="44.78971" lon="5.46455">
        <ele>1613.8</ele>
        <time>2025-09-28T09:39:09Z</time>
      </trkpt>
      <trkpt lat="44.78986" lon="5.4646">
        <ele>1617.3</ele>
        <time>2025-09-28T09:39:30Z</time>
      </trkpt>
      <trkpt lat="44.79001" lon="5.46462">
        <ele>1620.2</ele>
        <time>2025-09-28T09:39:51Z</time>
      </trkpt>
      <trkpt lat="44.79014" lon="5.46465">
        <ele>1623.1</ele>
        <time>2025-09-28T09:40:12Z</time>
      </trkpt>
      <trkpt lat="44.7903" lon="5.46471">
        <ele>1625.8</ele>
        <time>2025-09-28T09:40:33Z</time>
      </trkpt>
      <trkpt lat="44.79042" lon="5.46478">
        <ele>1629.3</ele>
        <time>2025-09-28T09:40:54Z</time>
      </trkpt>
      <trkpt lat="44.79053" lon="5.46483">
        <ele>1632.3</ele>
        <time>2025-09-28T09:41:15Z</time>
      </trkpt>
      <trkpt lat="44.79066" lon="5.46483">
        <ele>1634.3</ele>
        <time>2025-09-28T09:41:36Z</time>
      </trkpt>
      <trkpt lat="44.79083" lon="5.46473">
        <ele>1635.6</ele>
        <time>2025-09-28T09:41:57Z</time>
      </trkpt>
      <trkpt lat="44.79098" lon="5.46469">
        <ele>1638.3</ele>
        <time>2025-09-28T09:42:18Z</time>
      </trkpt>
      <trkpt lat="44.7911" lon="5.46466">
        <ele>1641</ele>
        <time>2025-09-28T09:42:39Z</time>
      </trkpt>
      <trkpt lat="44.7912" lon="5.46463">
        <ele>1644.1</ele>
        <time>2025-09-28T09:44:03Z</time>
      </trkpt>
      <trkpt lat="44.79136" lon="5.46462">
        <ele>1647.2</ele>
        <time>2025-09-28T09:44:24Z</time>
      </trkpt>
      <trkpt lat="44.7915" lon="5.4646">
        <ele>1648.6</ele>
        <time>2025-09-28T09:44:45Z</time>
      </trkpt>
      <trkpt lat="44.79169" lon="5.46456">
        <ele>1649.7</ele>
        <time>2025-09-28T09:45:06Z</time>
      </trkpt>
      <trkpt lat="44.79188" lon="5.46453">
        <ele>1650.1</ele>
        <time>2025-09-28T09:45:27Z</time>
      </trkpt>
      <trkpt lat="44.79209" lon="5.46445">
        <ele>1649.3</ele>
        <time>2025-09-28T09:45:48Z</time>
      </trkpt>
      <trkpt lat="44.79223" lon="5.4644">
        <ele>1648.7</ele>
        <time>2025-09-28T09:46:09Z</time>
      </trkpt>
      <trkpt lat="44.79244" lon="5.46437">
        <ele>1647.6</ele>
        <time>2025-09-28T09:46:30Z</time>
      </trkpt>
      <trkpt lat="44.79256" lon="5.46435">
        <ele>1647.8</ele>
        <time>2025-09-28T09:46:51Z</time>
      </trkpt>
      <trkpt lat="44.79256" lon="5.46435">
        <ele>1647.7</ele>
        <time>2025-09-28T09:47:12Z</time>
      </trkpt>
      <trkpt lat="44.79273" lon="5.46439">
        <ele>1649.1</ele>
        <time>2025-09-28T09:47:33Z</time>
      </trkpt>
      <trkpt lat="44.79292" lon="5.46445">
        <ele>1651.6</ele>
        <time>2025-09-28T09:47:54Z</time>
      </trkpt>
      <trkpt lat="44.79297" lon="5.46448">
        <ele>1652.3</ele>
        <time>2025-09-28T09:48:15Z</time>
      </trkpt>
      <trkpt lat="44.79313" lon="5.46457">
        <ele>1654.4</ele>
        <time>2025-09-28T09:48:36Z</time>
      </trkpt>
      <trkpt lat="44.79329" lon="5.46465">
        <ele>1657.6</ele>
        <time>2025-09-28T09:48:57Z</time>
      </trkpt>
      <trkpt lat="44.79345" lon="5.46483">
        <ele>1660.3</ele>
        <time>2025-09-28T09:49:18Z</time>
      </trkpt>
      <trkpt lat="44.7936" lon="5.46497">
        <ele>1662.2</ele>
        <time>2025-09-28T09:49:39Z</time>
      </trkpt>
      <trkpt lat="44.79377" lon="5.46512">
        <ele>1661.7</ele>
        <time>2025-09-28T09:50:00Z</time>
      </trkpt>
      <trkpt lat="44.79379" lon="5.46513">
        <ele>1661.7</ele>
        <time>2025-09-28T09:50:21Z</time>
      </trkpt>
      <trkpt lat="44.79384" lon="5.46499">
        <ele>1665.2</ele>
        <time>2025-09-28T09:58:03Z</time>
      </trkpt>
      <trkpt lat="44.79393" lon="5.46487">
        <ele>1667.6</ele>
        <time>2025-09-28T09:58:24Z</time>
      </trkpt>
      <trkpt lat="44.79394" lon="5.46469">
        <ele>1671.9</ele>
        <time>2025-09-28T09:58:45Z</time>
      </trkpt>
      <trkpt lat="44.79397" lon="5.4645">
        <ele>1672.8</ele>
        <time>2025-09-28T09:59:06Z</time>
      </trkpt>
      <trkpt lat="44.79407" lon="5.46428">
        <ele>1675.3</ele>
        <time>2025-09-28T09:59:27Z</time>
      </trkpt>
      <trkpt lat="44.79419" lon="5.4641">
        <ele>1677.9</ele>
        <time>2025-09-28T09:59:48Z</time>
      </trkpt>
      <trkpt lat="44.79431" lon="5.46397">
        <ele>1681.5</ele>
        <time>2025-09-28T10:00:09Z</time>
      </trkpt>
      <trkpt lat="44.79443" lon="5.4639">
        <ele>1684.7</ele>
        <time>2025-09-28T10:00:30Z</time>
      </trkpt>
      <trkpt lat="44.79456" lon="5.46386">
        <ele>1689.6</ele>
        <time>2025-09-28T10:00:51Z</time>
      </trkpt>
      <trkpt lat="44.79472" lon="5.46388">
        <ele>1690.6</ele>
        <time>2025-09-28T10:01:12Z</time>
      </trkpt>
      <trkpt lat="44.79486" lon="5.46386">
        <ele>1694.4</ele>
        <time>2025-09-28T10:01:33Z</time>
      </trkpt>
      <trkpt lat="44.79499" lon="5.46387">
        <ele>1697.4</ele>
        <time>2025-09-28T10:01:54Z</time>
      </trkpt>
      <trkpt lat="44.7951" lon="5.46387">
        <ele>1701.1</ele>
        <time>2025-09-28T10:02:15Z</time>
      </trkpt>
      <trkpt lat="44.7952" lon="5.46382">
        <ele>1704.8</ele>
        <time>2025-09-28T10:02:36Z</time>
      </trkpt>
      <trkpt lat="44.79533" lon="5.46385">
        <ele>1707.2</ele>
        <time>2025-09-28T10:02:57Z</time>
      </trkpt>
      <trkpt lat="44.79544" lon="5.46388">
        <ele>1708.6</ele>
        <time>2025-09-28T10:03:18Z</time>
      </trkpt>
      <trkpt lat="44.79549" lon="5.46386">
        <ele>1709.8</ele>
        <time>2025-09-28T10:03:39Z</time>
      </trkpt>
      <trkpt lat="44.79555" lon="5.46378">
        <ele>1713.7</ele>
        <time>2025-09-28T10:04:00Z</time>
      </trkpt>
      <trkpt lat="44.79562" lon="5.46374">
        <ele>1719.1</ele>
        <time>2025-09-28T10:04:21Z</time>
      </trkpt>
      <trkpt lat="44.79555" lon="5.46363">
        <ele>1723.8</ele>
        <time>2025-09-28T10:04:42Z</time>
      </trkpt>
      <trkpt lat="44.79549" lon="5.46352">
        <ele>1727.8</ele>
        <time>2025-09-28T10:05:03Z</time>
      </trkpt>
      <trkpt lat="44.79547" lon="5.4634">
        <ele>1730</ele>
        <time>2025-09-28T10:05:24Z</time>
      </trkpt>
      <trkpt lat="44.79547" lon="5.46329">
        <ele>1733.7</ele>
        <time>2025-09-28T10:05:45Z</time>
      </trkpt>
      <trkpt lat="44.79559" lon="5.46328">
        <ele>1736.9</ele>
        <time>2025-09-28T10:06:06Z</time>
      </trkpt>
      <trkpt lat="44.7957" lon="5.46326">
        <ele>1739.9</ele>
        <time>2025-09-28T10:06:27Z</time>
      </trkpt>
      <trkpt lat="44.79578" lon="5.46319">
        <ele>1743.2</ele>
        <time>2025-09-28T10:06:48Z</time>
      </trkpt>
      <trkpt lat="44.79585" lon="5.46312">
        <ele>1745.3</ele>
        <time>2025-09-28T10:07:09Z</time>
      </trkpt>
      <trkpt lat="44.79591" lon="5.46303">
        <ele>1749.5</ele>
        <time>2025-09-28T10:07:30Z</time>
      </trkpt>
      <trkpt lat="44.79591" lon="5.46291">
        <ele>1754.1</ele>
        <time>2025-09-28T10:07:51Z</time>
      </trkpt>
      <trkpt lat="44.7959" lon="5.46278">
        <ele>1758.2</ele>
        <time>2025-09-28T10:08:12Z</time>
      </trkpt>
      <trkpt lat="44.79593" lon="5.46267">
        <ele>1760.7</ele>
        <time>2025-09-28T10:08:33Z</time>
      </trkpt>
      <trkpt lat="44.79597" lon="5.46255">
        <ele>1764.6</ele>
        <time>2025-09-28T10:08:54Z</time>
      </trkpt>
      <trkpt lat="44.79604" lon="5.46243">
        <ele>1768.6</ele>
        <time>2025-09-28T10:09:15Z</time>
      </trkpt>
      <trkpt lat="44.79615" lon="5.46231">
        <ele>1771.8</ele>
        <time>2025-09-28T10:09:36Z</time>
      </trkpt>
      <trkpt lat="44.79626" lon="5.46221">
        <ele>1773.3</ele>
        <time>2025-09-28T10:09:57Z</time>
      </trkpt>
      <trkpt lat="44.79639" lon="5.46207">
        <ele>1776.5</ele>
        <time>2025-09-28T10:10:18Z</time>
      </trkpt>
      <trkpt lat="44.79651" lon="5.46199">
        <ele>1779.1</ele>
        <time>2025-09-28T10:10:39Z</time>
      </trkpt>
      <trkpt lat="44.79668" lon="5.46199">
        <ele>1779.1</ele>
        <time>2025-09-28T10:11:00Z</time>
      </trkpt>
      <trkpt lat="44.79682" lon="5.4619">
        <ele>1777.3</ele>
        <time>2025-09-28T10:11:21Z</time>
      </trkpt>
      <trkpt lat="44.79697" lon="5.46179">
        <ele>1779.8</ele>
        <time>2025-09-28T10:11:42Z</time>
      </trkpt>
      <trkpt lat="44.7971" lon="5.46167">
        <ele>1783.3</ele>
        <time>2025-09-28T10:12:03Z</time>
      </trkpt>
      <trkpt lat="44.79719" lon="5.46152">
        <ele>1786.7</ele>
        <time>2025-09-28T10:12:24Z</time>
      </trkpt>
      <trkpt lat="44.79723" lon="5.46135">
        <ele>1790</ele>
        <time>2025-09-28T10:12:45Z</time>
      </trkpt>
      <trkpt lat="44.79727" lon="5.46115">
        <ele>1792.4</ele>
        <time>2025-09-28T10:13:06Z</time>
      </trkpt>
      <trkpt lat="44.79735" lon="5.461">
        <ele>1795.5</ele>
        <time>2025-09-28T10:13:27Z</time>
      </trkpt>
      <trkpt lat="44.79743" lon="5.46084">
        <ele>1798.8</ele>
        <time>2025-09-28T10:13:48Z</time>
      </trkpt>
      <trkpt lat="44.79748" lon="5.46074">
        <ele>1800.8</ele>
        <time>2025-09-28T10:14:09Z</time>
      </trkpt>
      <trkpt lat="44.79763" lon="5.46072">
        <ele>1802.4</ele>
        <time>2025-09-28T10:14:30Z</time>
      </trkpt>
      <trkpt lat="44.79779" lon="5.46063">
        <ele>1803.5</ele>
        <time>2025-09-28T10:14:51Z</time>
      </trkpt>
      <trkpt lat="44.79796" lon="5.46053">
        <ele>1805.3</ele>
        <time>2025-09-28T10:15:12Z</time>
      </trkpt>
      <trkpt lat="44.79806" lon="5.46044">
        <ele>1807.3</ele>
        <time>2025-09-28T10:15:33Z</time>
      </trkpt>
      <trkpt lat="44.79815" lon="5.46035">
        <ele>1809.2</ele>
        <time>2025-09-28T10:15:54Z</time>
      </trkpt>
      <trkpt lat="44.7983" lon="5.4602">
        <ele>1811.6</ele>
        <time>2025-09-28T10:16:15Z</time>
      </trkpt>
      <trkpt lat="44.79844" lon="5.4601">
        <ele>1813.9</ele>
        <time>2025-09-28T10:16:36Z</time>
      </trkpt>
      <trkpt lat="44.79856" lon="5.46006">
        <ele>1814.1</ele>
        <time>2025-09-28T10:16:57Z</time>
      </trkpt>
      <trkpt lat="44.79871" lon="5.46002">
        <ele>1812.7</ele>
        <time>2025-09-28T10:17:18Z</time>
      </trkpt>
      <trkpt lat="44.79886" lon="5.45987">
        <ele>1814.9</ele>
        <time>2025-09-28T10:17:39Z</time>
      </trkpt>
      <trkpt lat="44.79898" lon="5.4597">
        <ele>1818.1</ele>
        <time>2025-09-28T10:18:00Z</time>
      </trkpt>
      <trkpt lat="44.79915" lon="5.45956">
        <ele>1818.3</ele>
        <time>2025-09-28T10:18:21Z</time>
      </trkpt>
      <trkpt lat="44.79928" lon="5.45947">
        <ele>1816.6</ele>
        <time>2025-09-28T10:18:42Z</time>
      </trkpt>
      <trkpt lat="44.79931" lon="5.45946">
        <ele>1816</ele>
        <time>2025-09-28T10:19:03Z</time>
      </trkpt>
      <trkpt lat="44.79948" lon="5.45938">
        <ele>1815.1</ele>
        <time>2025-09-28T10:19:24Z</time>
      </trkpt>
      <trkpt lat="44.79963" lon="5.45922">
        <ele>1816.4</ele>
        <time>2025-09-28T10:19:45Z</time>
      </trkpt>
      <trkpt lat="44.79975" lon="5.45903">
        <ele>1819</ele>
        <time>2025-09-28T10:20:06Z</time>
      </trkpt>
      <trkpt lat="44.79992" lon="5.45894">
        <ele>1821.1</ele>
        <time>2025-09-28T10:20:27Z</time>
      </trkpt>
      <trkpt lat="44.80007" lon="5.45883">
        <ele>1824.3</ele>
        <time>2025-09-28T10:20:48Z</time>
      </trkpt>
      <trkpt lat="44.80011" lon="5.45868">
        <ele>1826.6</ele>
        <time>2025-09-28T10:21:09Z</time>
      </trkpt>
      <trkpt lat="44.80014" lon="5.45871">
        <ele>1825.3</ele>
        <time>2025-09-28T11:15:24Z</time>
      </trkpt>
      <trkpt lat="44.80015" lon="5.45875">
        <ele>1825.1</ele>
        <time>2025-09-28T11:15:45Z</time>
      </trkpt>
      <trkpt lat="44.80022" lon="5.45884">
        <ele>1824</ele>
        <time>2025-09-28T11:16:06Z</time>
      </trkpt>
      <trkpt lat="44.80037" lon="5.45894">
        <ele>1821.9</ele>
        <time>2025-09-28T11:16:27Z</time>
      </trkpt>
      <trkpt lat="44.80049" lon="5.45911">
        <ele>1817.5</ele>
        <time>2025-09-28T11:16:48Z</time>
      </trkpt>
      <trkpt lat="44.80065" lon="5.4593">
        <ele>1812.8</ele>
        <time>2025-09-28T11:17:09Z</time>
      </trkpt>
      <trkpt lat="44.8008" lon="5.45953">
        <ele>1807.9</ele>
        <time>2025-09-28T11:17:30Z</time>
      </trkpt>
      <trkpt lat="44.801" lon="5.45958">
        <ele>1802.1</ele>
        <time>2025-09-28T11:17:51Z</time>
      </trkpt>
      <trkpt lat="44.80117" lon="5.45978">
        <ele>1799.9</ele>
        <time>2025-09-28T11:18:12Z</time>
      </trkpt>
      <trkpt lat="44.8013" lon="5.46005">
        <ele>1796.4</ele>
        <time>2025-09-28T11:18:33Z</time>
      </trkpt>
      <trkpt lat="44.80144" lon="5.46033">
        <ele>1794</ele>
        <time>2025-09-28T11:18:54Z</time>
      </trkpt>
      <trkpt lat="44.80155" lon="5.46062">
        <ele>1790.5</ele>
        <time>2025-09-28T11:19:15Z</time>
      </trkpt>
      <trkpt lat="44.80161" lon="5.46092">
        <ele>1788.3</ele>
        <time>2025-09-28T11:19:36Z</time>
      </trkpt>
      <trkpt lat="44.80175" lon="5.46119">
        <ele>1785.6</ele>
        <time>2025-09-28T11:19:57Z</time>
      </trkpt>
      <trkpt lat="44.80191" lon="5.46144">
        <ele>1780.8</ele>
        <time>2025-09-28T11:20:18Z</time>
      </trkpt>
      <trkpt lat="44.80203" lon="5.46169">
        <ele>1776.2</ele>
        <time>2025-09-28T11:20:39Z</time>
      </trkpt>
      <trkpt lat="44.80206" lon="5.46201">
        <ele>1772.5</ele>
        <time>2025-09-28T11:21:00Z</time>
      </trkpt>
      <trkpt lat="44.80221" lon="5.46225">
        <ele>1768.9</ele>
        <time>2025-09-28T11:21:21Z</time>
      </trkpt>
      <trkpt lat="44.80239" lon="5.46248">
        <ele>1765.5</ele>
        <time>2025-09-28T11:21:42Z</time>
      </trkpt>
      <trkpt lat="44.80254" lon="5.46274">
        <ele>1762.9</ele>
        <time>2025-09-28T11:22:03Z</time>
      </trkpt>
      <trkpt lat="44.80255" lon="5.46298">
        <ele>1758.3</ele>
        <time>2025-09-28T11:22:24Z</time>
      </trkpt>
      <trkpt lat="44.80255" lon="5.46317">
        <ele>1753.4</ele>
        <time>2025-09-28T11:22:45Z</time>
      </trkpt>
      <trkpt lat="44.80271" lon="5.46334">
        <ele>1751.3</ele>
        <time>2025-09-28T11:23:06Z</time>
      </trkpt>
      <trkpt lat="44.80281" lon="5.46354">
        <ele>1747.5</ele>
        <time>2025-09-28T11:23:27Z</time>
      </trkpt>
      <trkpt lat="44.8029" lon="5.46373">
        <ele>1742.5</ele>
        <time>2025-09-28T11:23:48Z</time>
      </trkpt>
      <trkpt lat="44.80303" lon="5.46389">
        <ele>1737.9</ele>
        <time>2025-09-28T11:24:09Z</time>
      </trkpt>
      <trkpt lat="44.80321" lon="5.46397">
        <ele>1734.5</ele>
        <time>2025-09-28T11:24:30Z</time>
      </trkpt>
      <trkpt lat="44.80335" lon="5.46412">
        <ele>1731.7</ele>
        <time>2025-09-28T11:24:51Z</time>
      </trkpt>
      <trkpt lat="44.80345" lon="5.46426">
        <ele>1728.7</ele>
        <time>2025-09-28T11:25:12Z</time>
      </trkpt>
      <trkpt lat="44.8034" lon="5.4644">
        <ele>1722.6</ele>
        <time>2025-09-28T11:25:33Z</time>
      </trkpt>
      <trkpt lat="44.8034" lon="5.46452">
        <ele>1717.3</ele>
        <time>2025-09-28T11:25:54Z</time>
      </trkpt>
      <trkpt lat="44.8035" lon="5.46464">
        <ele>1712.1</ele>
        <time>2025-09-28T11:26:15Z</time>
      </trkpt>
      <trkpt lat="44.80356" lon="5.46478">
        <ele>1708.3</ele>
        <time>2025-09-28T11:26:36Z</time>
      </trkpt>
      <trkpt lat="44.80363" lon="5.46495">
        <ele>1702.4</ele>
        <time>2025-09-28T11:26:57Z</time>
      </trkpt>
      <trkpt lat="44.80371" lon="5.46512">
        <ele>1696.5</ele>
        <time>2025-09-28T11:27:18Z</time>
      </trkpt>
      <trkpt lat="44.80375" lon="5.46529">
        <ele>1690.9</ele>
        <time>2025-09-28T11:27:39Z</time>
      </trkpt>
      <trkpt lat="44.80379" lon="5.46543">
        <ele>1684.1</ele>
        <time>2025-09-28T11:28:00Z</time>
      </trkpt>
      <trkpt lat="44.8038" lon="5.46566">
        <ele>1681</ele>
        <time>2025-09-28T11:28:21Z</time>
      </trkpt>
      <trkpt lat="44.80374" lon="5.46581">
        <ele>1679.7</ele>
        <time>2025-09-28T11:28:42Z</time>
      </trkpt>
      <trkpt lat="44.80385" lon="5.46601">
        <ele>1674.6</ele>
        <time>2025-09-28T11:29:03Z</time>
      </trkpt>
      <trkpt lat="44.80387" lon="5.46621">
        <ele>1669.3</ele>
        <time>2025-09-28T11:29:24Z</time>
      </trkpt>
      <trkpt lat="44.80382" lon="5.46639">
        <ele>1664.9</ele>
        <time>2025-09-28T11:29:45Z</time>
      </trkpt>
      <trkpt lat="44.80389" lon="5.46652">
        <ele>1660.1</ele>
        <time>2025-09-28T11:30:06Z</time>
      </trkpt>
      <trkpt lat="44.80397" lon="5.46666">
        <ele>1654.3</ele>
        <time>2025-09-28T11:30:27Z</time>
      </trkpt>
      <trkpt lat="44.80405" lon="5.46676">
        <ele>1651</ele>
        <time>2025-09-28T11:30:48Z</time>
      </trkpt>
      <trkpt lat="44.80418" lon="5.46677">
        <ele>1646</ele>
        <time>2025-09-28T11:31:09Z</time>
      </trkpt>
      <trkpt lat="44.80428" lon="5.46687">
        <ele>1641.6</ele>
        <time>2025-09-28T11:31:30Z</time>
      </trkpt>
      <trkpt lat="44.80436" lon="5.4669">
        <ele>1638.5</ele>
        <time>2025-09-28T11:31:51Z</time>
      </trkpt>
      <trkpt lat="44.80452" lon="5.46707">
        <ele>1635.5</ele>
        <time>2025-09-28T11:32:12Z</time>
      </trkpt>
      <trkpt lat="44.80465" lon="5.46712">
        <ele>1633</ele>
        <time>2025-09-28T11:36:03Z</time>
      </trkpt>
      <trkpt lat="44.80478" lon="5.46729">
        <ele>1633.5</ele>
        <time>2025-09-28T11:36:24Z</time>
      </trkpt>
      <trkpt lat="44.80485" lon="5.46757">
        <ele>1634.4</ele>
        <time>2025-09-28T11:36:45Z</time>
      </trkpt>
      <trkpt lat="44.80495" lon="5.46785">
        <ele>1631.8</ele>
        <time>2025-09-28T11:37:06Z</time>
      </trkpt>
      <trkpt lat="44.80508" lon="5.46816">
        <ele>1630</ele>
        <time>2025-09-28T11:37:27Z</time>
      </trkpt>
      <trkpt lat="44.80527" lon="5.46831">
        <ele>1630.8</ele>
        <time>2025-09-28T11:37:48Z</time>
      </trkpt>
      <trkpt lat="44.80547" lon="5.46846">
        <ele>1630.2</ele>
        <time>2025-09-28T11:38:09Z</time>
      </trkpt>
      <trkpt lat="44.80558" lon="5.46864">
        <ele>1627.1</ele>
        <time>2025-09-28T11:38:30Z</time>
      </trkpt>
      <trkpt lat="44.80563" lon="5.46878">
        <ele>1623.7</ele>
        <time>2025-09-28T11:38:51Z</time>
      </trkpt>
      <trkpt lat="44.80569" lon="5.46901">
        <ele>1618.7</ele>
        <time>2025-09-28T11:39:12Z</time>
      </trkpt>
      <trkpt lat="44.80573" lon="5.46929">
        <ele>1618.6</ele>
        <time>2025-09-28T11:39:33Z</time>
      </trkpt>
      <trkpt lat="44.80574" lon="5.46946">
        <ele>1622.9</ele>
        <time>2025-09-28T11:39:54Z</time>
      </trkpt>
      <trkpt lat="44.80576" lon="5.46971">
        <ele>1625.5</ele>
        <time>2025-09-28T11:40:15Z</time>
      </trkpt>
      <trkpt lat="44.80567" lon="5.46993">
        <ele>1627.4</ele>
        <time>2025-09-28T11:40:36Z</time>
      </trkpt>
      <trkpt lat="44.80568" lon="5.47018">
        <ele>1629.8</ele>
        <time>2025-09-28T11:40:57Z</time>
      </trkpt>
      <trkpt lat="44.80579" lon="5.47042">
        <ele>1630.3</ele>
        <time>2025-09-28T11:41:18Z</time>
      </trkpt>
      <trkpt lat="44.80592" lon="5.4706">
        <ele>1629.5</ele>
        <time>2025-09-28T11:41:39Z</time>
      </trkpt>
      <trkpt lat="44.80592" lon="5.47087">
        <ele>1632.2</ele>
        <time>2025-09-28T11:42:00Z</time>
      </trkpt>
      <trkpt lat="44.80583" lon="5.47102">
        <ele>1635.7</ele>
        <time>2025-09-28T11:42:21Z</time>
      </trkpt>
      <trkpt lat="44.80577" lon="5.47122">
        <ele>1638.5</ele>
        <time>2025-09-28T11:42:42Z</time>
      </trkpt>
      <trkpt lat="44.80566" lon="5.47139">
        <ele>1641.9</ele>
        <time>2025-09-28T11:43:03Z</time>
      </trkpt>
      <trkpt lat="44.80561" lon="5.47162">
        <ele>1644.3</ele>
        <time>2025-09-28T11:43:24Z</time>
      </trkpt>
      <trkpt lat="44.8056" lon="5.47191">
        <ele>1644.7</ele>
        <time>2025-09-28T11:43:45Z</time>
      </trkpt>
      <trkpt lat="44.80559" lon="5.4722">
        <ele>1645.1</ele>
        <time>2025-09-28T11:44:06Z</time>
      </trkpt>
      <trkpt lat="44.80561" lon="5.47252">
        <ele>1645.5</ele>
        <time>2025-09-28T11:44:27Z</time>
      </trkpt>
      <trkpt lat="44.8056" lon="5.47286">
        <ele>1646.5</ele>
        <time>2025-09-28T11:44:48Z</time>
      </trkpt>
      <trkpt lat="44.80558" lon="5.47316">
        <ele>1647.7</ele>
        <time>2025-09-28T11:45:09Z</time>
      </trkpt>
      <trkpt lat="44.80545" lon="5.47342">
        <ele>1645.6</ele>
        <time>2025-09-28T11:45:30Z</time>
      </trkpt>
      <trkpt lat="44.80535" lon="5.47372">
        <ele>1645.2</ele>
        <time>2025-09-28T11:45:51Z</time>
      </trkpt>
      <trkpt lat="44.80518" lon="5.47391">
        <ele>1643.8</ele>
        <time>2025-09-28T11:46:12Z</time>
      </trkpt>
      <trkpt lat="44.80499" lon="5.47409">
        <ele>1640.8</ele>
        <time>2025-09-28T11:46:33Z</time>
      </trkpt>
      <trkpt lat="44.80481" lon="5.47433">
        <ele>1639.2</ele>
        <time>2025-09-28T11:46:54Z</time>
      </trkpt>
      <trkpt lat="44.80468" lon="5.47445">
        <ele>1637.5</ele>
        <time>2025-09-28T11:47:15Z</time>
      </trkpt>
      <trkpt lat="44.80453" lon="5.47452">
        <ele>1639.4</ele>
        <time>2025-09-28T11:47:36Z</time>
      </trkpt>
      <trkpt lat="44.80436" lon="5.47461">
        <ele>1642</ele>
        <time>2025-09-28T11:47:57Z</time>
      </trkpt>
      <trkpt lat="44.80426" lon="5.47458">
        <ele>1646</ele>
        <time>2025-09-28T11:48:18Z</time>
      </trkpt>
      <trkpt lat="44.80423" lon="5.47451">
        <ele>1646.3</ele>
        <time>2025-09-28T11:48:39Z</time>
      </trkpt>
      <trkpt lat="44.80423" lon="5.47451">
        <ele>1646.5</ele>
        <time>2025-09-28T11:49:00Z</time>
      </trkpt>
      <trkpt lat="44.80423" lon="5.47451">
        <ele>1645.9</ele>
        <time>2025-09-28T11:49:21Z</time>
      </trkpt>
      <trkpt lat="44.80423" lon="5.47451">
        <ele>1645.9</ele>
        <time>2025-09-28T11:49:42Z</time>
      </trkpt>
      <trkpt lat="44.80419" lon="5.47449">
        <ele>1645.9</ele>
        <time>2025-09-28T11:50:03Z</time>
      </trkpt>
      <trkpt lat="44.8041" lon="5.47439">
        <ele>1644.9</ele>
        <time>2025-09-28T11:50:24Z</time>
      </trkpt>
      <trkpt lat="44.80415" lon="5.47436">
        <ele>1645.2</ele>
        <time>2025-09-28T11:50:45Z</time>
      </trkpt>
      <trkpt lat="44.8041" lon="5.47423">
        <ele>1641</ele>
        <time>2025-09-28T11:51:06Z</time>
      </trkpt>
      <trkpt lat="44.80398" lon="5.47404">
        <ele>1639.3</ele>
        <time>2025-09-28T11:51:27Z</time>
      </trkpt>
      <trkpt lat="44.80397" lon="5.47388">
        <ele>1640.2</ele>
        <time>2025-09-28T11:51:48Z</time>
      </trkpt>
      <trkpt lat="44.80389" lon="5.47375">
        <ele>1636.5</ele>
        <time>2025-09-28T11:52:09Z</time>
      </trkpt>
      <trkpt lat="44.80376" lon="5.47378">
        <ele>1634.8</ele>
        <time>2025-09-28T11:52:30Z</time>
      </trkpt>
      <trkpt lat="44.80367" lon="5.47392">
        <ele>1631.4</ele>
        <time>2025-09-28T11:52:51Z</time>
      </trkpt>
      <trkpt lat="44.80367" lon="5.47422">
        <ele>1633.7</ele>
        <time>2025-09-28T11:53:12Z</time>
      </trkpt>
      <trkpt lat="44.8036" lon="5.47448">
        <ele>1635.4</ele>
        <time>2025-09-28T11:53:33Z</time>
      </trkpt>
      <trkpt lat="44.80363" lon="5.47476">
        <ele>1630.8</ele>
        <time>2025-09-28T11:53:54Z</time>
      </trkpt>
      <trkpt lat="44.80369" lon="5.47495">
        <ele>1627.7</ele>
        <time>2025-09-28T11:54:15Z</time>
      </trkpt>
      <trkpt lat="44.80384" lon="5.47503">
        <ele>1624.2</ele>
        <time>2025-09-28T11:54:36Z</time>
      </trkpt>
      <trkpt lat="44.804" lon="5.4751">
        <ele>1621.4</ele>
        <time>2025-09-28T11:54:57Z</time>
      </trkpt>
      <trkpt lat="44.80409" lon="5.47525">
        <ele>1617.6</ele>
        <time>2025-09-28T11:55:18Z</time>
      </trkpt>
      <trkpt lat="44.80395" lon="5.47542">
        <ele>1613.1</ele>
        <time>2025-09-28T11:55:39Z</time>
      </trkpt>
      <trkpt lat="44.80391" lon="5.47576">
        <ele>1610.8</ele>
        <time>2025-09-28T11:56:00Z</time>
      </trkpt>
      <trkpt lat="44.80391" lon="5.47592">
        <ele>1611.1</ele>
        <time>2025-09-28T11:56:21Z</time>
      </trkpt>
      <trkpt lat="44.80392" lon="5.47593">
        <ele>1611.1</ele>
        <time>2025-09-28T11:56:42Z</time>
      </trkpt>
      <trkpt lat="44.80392" lon="5.47593">
        <ele>1611.2</ele>
        <time>2025-09-28T11:57:03Z</time>
      </trkpt>
      <trkpt lat="44.80392" lon="5.47593">
        <ele>1611.2</ele>
        <time>2025-09-28T11:57:24Z</time>
      </trkpt>
      <trkpt lat="44.80392" lon="5.47593">
        <ele>1611</ele>
        <time>2025-09-28T11:57:45Z</time>
      </trkpt>
      <trkpt lat="44.80392" lon="5.47593">
        <ele>1611</ele>
        <time>2025-09-28T11:58:06Z</time>
      </trkpt>
      <trkpt lat="44.80391" lon="5.47592">
        <ele>1611</ele>
        <time>2025-09-28T11:58:27Z</time>
      </trkpt>
      <trkpt lat="44.8041" lon="5.47604">
        <ele>1610.6</ele>
        <time>2025-09-28T11:58:48Z</time>
      </trkpt>
      <trkpt lat="44.80427" lon="5.47622">
        <ele>1609.1</ele>
        <time>2025-09-28T11:59:09Z</time>
      </trkpt>
      <trkpt lat="44.8045" lon="5.47637">
        <ele>1608.2</ele>
        <time>2025-09-28T11:59:30Z</time>
      </trkpt>
      <trkpt lat="44.80472" lon="5.4764">
        <ele>1611.4</ele>
        <time>2025-09-28T11:59:51Z</time>
      </trkpt>
      <trkpt lat="44.8049" lon="5.47632">
        <ele>1616.2</ele>
        <time>2025-09-28T12:00:12Z</time>
      </trkpt>
      <trkpt lat="44.80506" lon="5.47626">
        <ele>1619.9</ele>
        <time>2025-09-28T12:00:33Z</time>
      </trkpt>
      <trkpt lat="44.80524" lon="5.47622">
        <ele>1622.1</ele>
        <time>2025-09-28T12:00:54Z</time>
      </trkpt>
      <trkpt lat="44.80542" lon="5.47614">
        <ele>1625.5</ele>
        <time>2025-09-28T12:01:15Z</time>
      </trkpt>
      <trkpt lat="44.80563" lon="5.47619">
        <ele>1627.2</ele>
        <time>2025-09-28T12:01:36Z</time>
      </trkpt>
      <trkpt lat="44.80586" lon="5.47618">
        <ele>1625</ele>
        <time>2025-09-28T12:01:57Z</time>
      </trkpt>
      <trkpt lat="44.80611" lon="5.4762">
        <ele>1625.3</ele>
        <time>2025-09-28T12:02:18Z</time>
      </trkpt>
      <trkpt lat="44.80634" lon="5.47633">
        <ele>1623.9</ele>
        <time>2025-09-28T12:02:39Z</time>
      </trkpt>
      <trkpt lat="44.80651" lon="5.4762">
        <ele>1622.3</ele>
        <time>2025-09-28T12:03:00Z</time>
      </trkpt>
      <trkpt lat="44.80671" lon="5.47604">
        <ele>1618.1</ele>
        <time>2025-09-28T12:03:21Z</time>
      </trkpt>
      <trkpt lat="44.80685" lon="5.47595">
        <ele>1615.1</ele>
        <time>2025-09-28T12:03:42Z</time>
      </trkpt>
      <trkpt lat="44.80685" lon="5.47594">
        <ele>1614.5</ele>
        <time>2025-09-28T12:04:45Z</time>
      </trkpt>
      <trkpt lat="44.80693" lon="5.47575">
        <ele>1611.2</ele>
        <time>2025-09-28T12:05:06Z</time>
      </trkpt>
      <trkpt lat="44.80706" lon="5.47556">
        <ele>1608</ele>
        <time>2025-09-28T12:05:27Z</time>
      </trkpt>
      <trkpt lat="44.80718" lon="5.47532">
        <ele>1602.8</ele>
        <time>2025-09-28T12:05:48Z</time>
      </trkpt>
      <trkpt lat="44.80733" lon="5.47504">
        <ele>1598.5</ele>
        <time>2025-09-28T12:06:09Z</time>
      </trkpt>
      <trkpt lat="44.80743" lon="5.47475">
        <ele>1591.7</ele>
        <time>2025-09-28T12:06:30Z</time>
      </trkpt>
      <trkpt lat="44.80759" lon="5.47454">
        <ele>1587.1</ele>
        <time>2025-09-28T12:06:51Z</time>
      </trkpt>
      <trkpt lat="44.80765" lon="5.4745">
        <ele>1588.5</ele>
        <time>2025-09-28T12:07:12Z</time>
      </trkpt>
      <trkpt lat="44.80774" lon="5.47443">
        <ele>1586.4</ele>
        <time>2025-09-28T12:07:33Z</time>
      </trkpt>
      <trkpt lat="44.80784" lon="5.47422">
        <ele>1580.3</ele>
        <time>2025-09-28T12:07:54Z</time>
      </trkpt>
      <trkpt lat="44.80788" lon="5.47405">
        <ele>1576.2</ele>
        <time>2025-09-28T12:08:15Z</time>
      </trkpt>
      <trkpt lat="44.80807" lon="5.47399">
        <ele>1569.9</ele>
        <time>2025-09-28T12:08:36Z</time>
      </trkpt>
      <trkpt lat="44.80827" lon="5.47395">
        <ele>1571.1</ele>
        <time>2025-09-28T12:08:57Z</time>
      </trkpt>
      <trkpt lat="44.80844" lon="5.47376">
        <ele>1571.4</ele>
        <time>2025-09-28T12:09:18Z</time>
      </trkpt>
      <trkpt lat="44.80865" lon="5.47361">
        <ele>1563.8</ele>
        <time>2025-09-28T12:09:39Z</time>
      </trkpt>
      <trkpt lat="44.80885" lon="5.47345">
        <ele>1560.6</ele>
        <time>2025-09-28T12:10:00Z</time>
      </trkpt>
      <trkpt lat="44.80902" lon="5.47322">
        <ele>1555.8</ele>
        <time>2025-09-28T12:10:21Z</time>
      </trkpt>
      <trkpt lat="44.80918" lon="5.473">
        <ele>1551.4</ele>
        <time>2025-09-28T12:10:42Z</time>
      </trkpt>
      <trkpt lat="44.80925" lon="5.4729">
        <ele>1549</ele>
        <time>2025-09-28T12:11:03Z</time>
      </trkpt>
      <trkpt lat="44.80929" lon="5.47281">
        <ele>1546.3</ele>
        <time>2025-09-28T12:12:06Z</time>
      </trkpt>
      <trkpt lat="44.80944" lon="5.47257">
        <ele>1550.2</ele>
        <time>2025-09-28T12:12:27Z</time>
      </trkpt>
      <trkpt lat="44.80946" lon="5.47253">
        <ele>1548.6</ele>
        <time>2025-09-28T12:13:09Z</time>
      </trkpt>
      <trkpt lat="44.80943" lon="5.47256">
        <ele>1550.9</ele>
        <time>2025-09-28T12:14:12Z</time>
      </trkpt>
      <trkpt lat="44.80935" lon="5.47266">
        <ele>1550</ele>
        <time>2025-09-28T12:14:33Z</time>
      </trkpt>
      <trkpt lat="44.80929" lon="5.47266">
        <ele>1546.9</ele>
        <time>2025-09-28T12:14:54Z</time>
      </trkpt>
      <trkpt lat="44.80918" lon="5.47251">
        <ele>1544.8</ele>
        <time>2025-09-28T12:15:15Z</time>
      </trkpt>
      <trkpt lat="44.80914" lon="5.4724">
        <ele>1540.3</ele>
        <time>2025-09-28T12:15:36Z</time>
      </trkpt>
      <trkpt lat="44.80912" lon="5.4723">
        <ele>1538.9</ele>
        <time>2025-09-28T12:15:57Z</time>
      </trkpt>
      <trkpt lat="44.80895" lon="5.47208">
        <ele>1532.2</ele>
        <time>2025-09-28T12:16:18Z</time>
      </trkpt>
      <trkpt lat="44.80883" lon="5.47187">
        <ele>1530.2</ele>
        <time>2025-09-28T12:16:39Z</time>
      </trkpt>
      <trkpt lat="44.8087" lon="5.47166">
        <ele>1528.6</ele>
        <time>2025-09-28T12:17:00Z</time>
      </trkpt>
      <trkpt lat="44.80893" lon="5.47172">
        <ele>1522.5</ele>
        <time>2025-09-28T12:17:21Z</time>
      </trkpt>
      <trkpt lat="44.80914" lon="5.47182">
        <ele>1517</ele>
        <time>2025-09-28T12:17:42Z</time>
      </trkpt>
      <trkpt lat="44.80913" lon="5.47159">
        <ele>1517.6</ele>
        <time>2025-09-28T12:18:03Z</time>
      </trkpt>
      <trkpt lat="44.80916" lon="5.47136">
        <ele>1510.8</ele>
        <time>2025-09-28T12:18:24Z</time>
      </trkpt>
      <trkpt lat="44.80916" lon="5.4711">
        <ele>1505.8</ele>
        <time>2025-09-28T12:18:45Z</time>
      </trkpt>
      <trkpt lat="44.80914" lon="5.47103">
        <ele>1503.6</ele>
        <time>2025-09-28T12:19:06Z</time>
      </trkpt>
      <trkpt lat="44.80921" lon="5.4709">
        <ele>1503.4</ele>
        <time>2025-09-28T12:20:09Z</time>
      </trkpt>
      <trkpt lat="44.80932" lon="5.47069">
        <ele>1499</ele>
        <time>2025-09-28T12:20:30Z</time>
      </trkpt>
      <trkpt lat="44.80939" lon="5.47038">
        <ele>1494.5</ele>
        <time>2025-09-28T12:20:51Z</time>
      </trkpt>
      <trkpt lat="44.80942" lon="5.47008">
        <ele>1487.1</ele>
        <time>2025-09-28T12:21:12Z</time>
      </trkpt>
      <trkpt lat="44.80937" lon="5.46994">
        <ele>1484</ele>
        <time>2025-09-28T12:21:33Z</time>
      </trkpt>
      <trkpt lat="44.80926" lon="5.47006">
        <ele>1485.5</ele>
        <time>2025-09-28T12:21:54Z</time>
      </trkpt>
      <trkpt lat="44.80906" lon="5.47013">
        <ele>1481.7</ele>
        <time>2025-09-28T12:22:15Z</time>
      </trkpt>
      <trkpt lat="44.80895" lon="5.47031">
        <ele>1482.7</ele>
        <time>2025-09-28T12:22:36Z</time>
      </trkpt>
      <trkpt lat="44.80879" lon="5.47017">
        <ele>1480</ele>
        <time>2025-09-28T12:22:57Z</time>
      </trkpt>
      <trkpt lat="44.80861" lon="5.46991">
        <ele>1482.7</ele>
        <time>2025-09-28T12:23:18Z</time>
      </trkpt>
      <trkpt lat="44.80846" lon="5.46959">
        <ele>1477.4</ele>
        <time>2025-09-28T12:23:39Z</time>
      </trkpt>
      <trkpt lat="44.8083" lon="5.46936">
        <ele>1473.7</ele>
        <time>2025-09-28T12:24:00Z</time>
      </trkpt>
      <trkpt lat="44.80818" lon="5.46909">
        <ele>1477.9</ele>
        <time>2025-09-28T12:24:21Z</time>
      </trkpt>
      <trkpt lat="44.80808" lon="5.46882">
        <ele>1481.5</ele>
        <time>2025-09-28T12:24:42Z</time>
      </trkpt>
      <trkpt lat="44.80809" lon="5.46853">
        <ele>1483.1</ele>
        <time>2025-09-28T12:25:03Z</time>
      </trkpt>
      <trkpt lat="44.80803" lon="5.4683">
        <ele>1481</ele>
        <time>2025-09-28T12:25:24Z</time>
      </trkpt>
      <trkpt lat="44.80817" lon="5.46799">
        <ele>1483.4</ele>
        <time>2025-09-28T12:25:45Z</time>
      </trkpt>
      <trkpt lat="44.80833" lon="5.46778">
        <ele>1483.1</ele>
        <time>2025-09-28T12:26:06Z</time>
      </trkpt>
      <trkpt lat="44.80848" lon="5.4676">
        <ele>1483.6</ele>
        <time>2025-09-28T12:26:27Z</time>
      </trkpt>
      <trkpt lat="44.80847" lon="5.46755">
        <ele>1482.4</ele>
        <time>2025-09-28T12:26:48Z</time>
      </trkpt>
      <trkpt lat="44.80847" lon="5.46754">
        <ele>1482.3</ele>
        <time>2025-09-28T12:27:09Z</time>
      </trkpt>
      <trkpt lat="44.80847" lon="5.46754">
        <ele>1482.1</ele>
        <time>2025-09-28T12:27:30Z</time>
      </trkpt>
      <trkpt lat="44.80834" lon="5.46741">
        <ele>1482.1</ele>
        <time>2025-09-28T12:27:51Z</time>
      </trkpt>
      <trkpt lat="44.80812" lon="5.46723">
        <ele>1481.8</ele>
        <time>2025-09-28T12:28:12Z</time>
      </trkpt>
      <trkpt lat="44.80803" lon="5.46688">
        <ele>1479.9</ele>
        <time>2025-09-28T12:28:33Z</time>
      </trkpt>
      <trkpt lat="44.80787" lon="5.4666">
        <ele>1479.5</ele>
        <time>2025-09-28T12:28:54Z</time>
      </trkpt>
      <trkpt lat="44.80785" lon="5.46624">
        <ele>1475.1</ele>
        <time>2025-09-28T12:29:15Z</time>
      </trkpt>
      <trkpt lat="44.80779" lon="5.4659">
        <ele>1472.7</ele>
        <time>2025-09-28T12:29:36Z</time>
      </trkpt>
      <trkpt lat="44.80772" lon="5.46565">
        <ele>1470.2</ele>
        <time>2025-09-28T12:29:57Z</time>
      </trkpt>
      <trkpt lat="44.80752" lon="5.4657">
        <ele>1470.4</ele>
        <time>2025-09-28T12:30:18Z</time>
      </trkpt>
      <trkpt lat="44.80727" lon="5.46565">
        <ele>1468.6</ele>
        <time>2025-09-28T12:30:39Z</time>
      </trkpt>
      <trkpt lat="44.80709" lon="5.4654">
        <ele>1473.6</ele>
        <time>2025-09-28T12:31:00Z</time>
      </trkpt>
      <trkpt lat="44.8069" lon="5.46526">
        <ele>1469.3</ele>
        <time>2025-09-28T12:31:21Z</time>
      </trkpt>
      <trkpt lat="44.80667" lon="5.46517">
        <ele>1465.4</ele>
        <time>2025-09-28T12:31:42Z</time>
      </trkpt>
      <trkpt lat="44.80655" lon="5.46486">
        <ele>1465.2</ele>
        <time>2025-09-28T12:32:03Z</time>
      </trkpt>
      <trkpt lat="44.8066" lon="5.46448">
        <ele>1460.3</ele>
        <time>2025-09-28T12:32:24Z</time>
      </trkpt>
      <trkpt lat="44.80648" lon="5.4643">
        <ele>1454.7</ele>
        <time>2025-09-28T12:32:45Z</time>
      </trkpt>
      <trkpt lat="44.80625" lon="5.46427">
        <ele>1451.1</ele>
        <time>2025-09-28T12:33:06Z</time>
      </trkpt>
      <trkpt lat="44.806" lon="5.46422">
        <ele>1450.2</ele>
        <time>2025-09-28T12:33:27Z</time>
      </trkpt>
      <trkpt lat="44.8059" lon="5.46395">
        <ele>1448.5</ele>
        <time>2025-09-28T12:33:48Z</time>
      </trkpt>
      <trkpt lat="44.80582" lon="5.46368">
        <ele>1443.9</ele>
        <time>2025-09-28T12:34:09Z</time>
      </trkpt>
      <trkpt lat="44.80568" lon="5.46336">
        <ele>1440.9</ele>
        <time>2025-09-28T12:34:30Z</time>
      </trkpt>
      <trkpt lat="44.80555" lon="5.46319">
        <ele>1438.6</ele>
        <time>2025-09-28T12:34:51Z</time>
      </trkpt>
      <trkpt lat="44.80551" lon="5.46284">
        <ele>1437.6</ele>
        <time>2025-09-28T12:35:12Z</time>
      </trkpt>
      <trkpt lat="44.80557" lon="5.46253">
        <ele>1435</ele>
        <time>2025-09-28T12:35:33Z</time>
      </trkpt>
      <trkpt lat="44.80564" lon="5.46234">
        <ele>1435.6</ele>
        <time>2025-09-28T12:35:54Z</time>
      </trkpt>
      <trkpt lat="44.80561" lon="5.46203">
        <ele>1437.9</ele>
        <time>2025-09-28T12:36:15Z</time>
      </trkpt>
      <trkpt lat="44.80562" lon="5.46167">
        <ele>1437.6</ele>
        <time>2025-09-28T12:36:36Z</time>
      </trkpt>
      <trkpt lat="44.80546" lon="5.46148">
        <ele>1439.8</ele>
        <time>2025-09-28T12:36:57Z</time>
      </trkpt>
      <trkpt lat="44.8053" lon="5.4613">
        <ele>1435.9</ele>
        <time>2025-09-28T12:37:18Z</time>
      </trkpt>
      <trkpt lat="44.8051" lon="5.46112">
        <ele>1432.9</ele>
        <time>2025-09-28T12:37:39Z</time>
      </trkpt>
      <trkpt lat="44.80508" lon="5.4607">
        <ele>1435.1</ele>
        <time>2025-09-28T12:38:00Z</time>
      </trkpt>
      <trkpt lat="44.80502" lon="5.46046">
        <ele>1432.7</ele>
        <time>2025-09-28T12:38:21Z</time>
      </trkpt>
      <trkpt lat="44.80492" lon="5.46023">
        <ele>1430.2</ele>
        <time>2025-09-28T12:38:42Z</time>
      </trkpt>
      <trkpt lat="44.805" lon="5.4599">
        <ele>1429.6</ele>
        <time>2025-09-28T12:39:03Z</time>
      </trkpt>
      <trkpt lat="44.80511" lon="5.4596">
        <ele>1433.7</ele>
        <time>2025-09-28T12:39:24Z</time>
      </trkpt>
      <trkpt lat="44.80517" lon="5.45935">
        <ele>1435</ele>
        <time>2025-09-28T12:39:45Z</time>
      </trkpt>
      <trkpt lat="44.8052" lon="5.45928">
        <ele>1435.5</ele>
        <time>2025-09-28T12:42:12Z</time>
      </trkpt>
      <trkpt lat="44.80522" lon="5.4591">
        <ele>1432.2</ele>
        <time>2025-09-28T12:42:33Z</time>
      </trkpt>
      <trkpt lat="44.80531" lon="5.45904">
        <ele>1427.6</ele>
        <time>2025-09-28T12:42:54Z</time>
      </trkpt>
      <trkpt lat="44.80539" lon="5.45935">
        <ele>1421</ele>
        <time>2025-09-28T12:43:15Z</time>
      </trkpt>
      <trkpt lat="44.80544" lon="5.45938">
        <ele>1417.5</ele>
        <time>2025-09-28T12:43:36Z</time>
      </trkpt>
      <trkpt lat="44.80547" lon="5.45948">
        <ele>1414.7</ele>
        <time>2025-09-28T12:43:57Z</time>
      </trkpt>
      <trkpt lat="44.80551" lon="5.4595">
        <ele>1408.1</ele>
        <time>2025-09-28T12:44:18Z</time>
      </trkpt>
      <trkpt lat="44.80558" lon="5.45929">
        <ele>1406.4</ele>
        <time>2025-09-28T12:44:39Z</time>
      </trkpt>
      <trkpt lat="44.80563" lon="5.45952">
        <ele>1400.4</ele>
        <time>2025-09-28T12:45:00Z</time>
      </trkpt>
      <trkpt lat="44.80562" lon="5.45982">
        <ele>1394.4</ele>
        <time>2025-09-28T12:45:21Z</time>
      </trkpt>
      <trkpt lat="44.80559" lon="5.45996">
        <ele>1389.4</ele>
        <time>2025-09-28T12:45:42Z</time>
      </trkpt>
      <trkpt lat="44.80569" lon="5.45981">
        <ele>1387.4</ele>
        <time>2025-09-28T12:46:03Z</time>
      </trkpt>
      <trkpt lat="44.8058" lon="5.4597">
        <ele>1381.3</ele>
        <time>2025-09-28T12:46:24Z</time>
      </trkpt>
      <trkpt lat="44.80585" lon="5.45955">
        <ele>1377.3</ele>
        <time>2025-09-28T12:46:45Z</time>
      </trkpt>
      <trkpt lat="44.80591" lon="5.45934">
        <ele>1373.5</ele>
        <time>2025-09-28T12:47:06Z</time>
      </trkpt>
      <trkpt lat="44.80595" lon="5.45913">
        <ele>1369.4</ele>
        <time>2025-09-28T12:47:27Z</time>
      </trkpt>
      <trkpt lat="44.80598" lon="5.45907">
        <ele>1365.4</ele>
        <time>2025-09-28T12:47:48Z</time>
      </trkpt>
      <trkpt lat="44.80604" lon="5.45907">
        <ele>1360.3</ele>
        <time>2025-09-28T12:48:09Z</time>
      </trkpt>
      <trkpt lat="44.8061" lon="5.45901">
        <ele>1353.1</ele>
        <time>2025-09-28T12:48:30Z</time>
      </trkpt>
      <trkpt lat="44.80618" lon="5.45928">
        <ele>1348.8</ele>
        <time>2025-09-28T12:48:51Z</time>
      </trkpt>
      <trkpt lat="44.80624" lon="5.45953">
        <ele>1341.7</ele>
        <time>2025-09-28T12:49:12Z</time>
      </trkpt>
      <trkpt lat="44.80627" lon="5.45977">
        <ele>1335.3</ele>
        <time>2025-09-28T12:49:33Z</time>
      </trkpt>
      <trkpt lat="44.80633" lon="5.45951">
        <ele>1334.2</ele>
        <time>2025-09-28T12:49:54Z</time>
      </trkpt>
      <trkpt lat="44.80638" lon="5.4593">
        <ele>1328.9</ele>
        <time>2025-09-28T12:50:15Z</time>
      </trkpt>
      <trkpt lat="44.80646" lon="5.45949">
        <ele>1322.2</ele>
        <time>2025-09-28T12:50:36Z</time>
      </trkpt>
      <trkpt lat="44.8065" lon="5.45961">
        <ele>1318.7</ele>
        <time>2025-09-28T12:50:57Z</time>
      </trkpt>
      <trkpt lat="44.80654" lon="5.45934">
        <ele>1316.1</ele>
        <time>2025-09-28T12:51:18Z</time>
      </trkpt>
      <trkpt lat="44.80661" lon="5.45915">
        <ele>1312.3</ele>
        <time>2025-09-28T12:51:39Z</time>
      </trkpt>
      <trkpt lat="44.80667" lon="5.45894">
        <ele>1307.6</ele>
        <time>2025-09-28T12:52:00Z</time>
      </trkpt>
      <trkpt lat="44.8067" lon="5.45884">
        <ele>1302</ele>
        <time>2025-09-28T12:52:21Z</time>
      </trkpt>
      <trkpt lat="44.80675" lon="5.45877">
        <ele>1297.5</ele>
        <time>2025-09-28T12:52:42Z</time>
      </trkpt>
      <trkpt lat="44.8068" lon="5.45868">
        <ele>1293</ele>
        <time>2025-09-28T12:53:03Z</time>
      </trkpt>
      <trkpt lat="44.80686" lon="5.45868">
        <ele>1286.7</ele>
        <time>2025-09-28T12:53:24Z</time>
      </trkpt>
      <trkpt lat="44.8069" lon="5.45872">
        <ele>1282.3</ele>
        <time>2025-09-28T12:53:45Z</time>
      </trkpt>
      <trkpt lat="44.80696" lon="5.45863">
        <ele>1278</ele>
        <time>2025-09-28T12:54:06Z</time>
      </trkpt>
      <trkpt lat="44.80699" lon="5.45849">
        <ele>1274.9</ele>
        <time>2025-09-28T12:54:27Z</time>
      </trkpt>
      <trkpt lat="44.80695" lon="5.4584">
        <ele>1272.8</ele>
        <time>2025-09-28T12:54:48Z</time>
      </trkpt>
      <trkpt lat="44.80698" lon="5.45833">
        <ele>1268.9</ele>
        <time>2025-09-28T12:55:09Z</time>
      </trkpt>
      <trkpt lat="44.80703" lon="5.45832">
        <ele>1266.5</ele>
        <time>2025-09-28T12:55:30Z</time>
      </trkpt>
      <trkpt lat="44.80708" lon="5.45829">
        <ele>1262.2</ele>
        <time>2025-09-28T12:55:51Z</time>
      </trkpt>
      <trkpt lat="44.80708" lon="5.45826">
        <ele>1261.3</ele>
        <time>2025-09-28T12:56:12Z</time>
      </trkpt>
      <trkpt lat="44.8072" lon="5.4582">
        <ele>1255.5</ele>
        <time>2025-09-28T12:56:33Z</time>
      </trkpt>
      <trkpt lat="44.80702" lon="5.45808">
        <ele>1251</ele>
        <time>2025-09-28T12:56:54Z</time>
      </trkpt>
      <trkpt lat="44.8072" lon="5.45796">
        <ele>1245.9</ele>
        <time>2025-09-28T12:57:15Z</time>
      </trkpt>
      <trkpt lat="44.80738" lon="5.45794">
        <ele>1239.4</ele>
        <time>2025-09-28T12:57:36Z</time>
      </trkpt>
      <trkpt lat="44.80744" lon="5.45795">
        <ele>1236.4</ele>
        <time>2025-09-28T12:57:57Z</time>
      </trkpt>
      <trkpt lat="44.80751" lon="5.4579">
        <ele>1232.6</ele>
        <time>2025-09-28T12:58:18Z</time>
      </trkpt>
      <trkpt lat="44.80734" lon="5.45772">
        <ele>1228.3</ele>
        <time>2025-09-28T12:58:39Z</time>
      </trkpt>
      <trkpt lat="44.80745" lon="5.45758">
        <ele>1222.1</ele>
        <time>2025-09-28T12:59:00Z</time>
      </trkpt>
      <trkpt lat="44.80762" lon="5.45756">
        <ele>1215</ele>
        <time>2025-09-28T12:59:21Z</time>
      </trkpt>
      <trkpt lat="44.80776" lon="5.45758">
        <ele>1210.6</ele>
        <time>2025-09-28T12:59:42Z</time>
      </trkpt>
      <trkpt lat="44.80763" lon="5.45744">
        <ele>1203.7</ele>
        <time>2025-09-28T13:00:03Z</time>
      </trkpt>
      <trkpt lat="44.80757" lon="5.45728">
        <ele>1199.7</ele>
        <time>2025-09-28T13:00:24Z</time>
      </trkpt>
      <trkpt lat="44.80766" lon="5.45724">
        <ele>1195.3</ele>
        <time>2025-09-28T13:00:45Z</time>
      </trkpt>
      <trkpt lat="44.8078" lon="5.45723">
        <ele>1191.7</ele>
        <time>2025-09-28T13:01:06Z</time>
      </trkpt>
      <trkpt lat="44.80796" lon="5.45717">
        <ele>1185.8</ele>
        <time>2025-09-28T13:01:27Z</time>
      </trkpt>
      <trkpt lat="44.80814" lon="5.45712">
        <ele>1178.9</ele>
        <time>2025-09-28T13:01:48Z</time>
      </trkpt>
      <trkpt lat="44.80802" lon="5.45704">
        <ele>1173.7</ele>
        <time>2025-09-28T13:02:09Z</time>
      </trkpt>
      <trkpt lat="44.80803" lon="5.45694">
        <ele>1166.7</ele>
        <time>2025-09-28T13:02:30Z</time>
      </trkpt>
      <trkpt lat="44.80819" lon="5.45685">
        <ele>1161</ele>
        <time>2025-09-28T13:02:51Z</time>
      </trkpt>
      <trkpt lat="44.80814" lon="5.4568">
        <ele>1154.8</ele>
        <time>2025-09-28T13:03:12Z</time>
      </trkpt>
      <trkpt lat="44.80823" lon="5.45667">
        <ele>1151.5</ele>
        <time>2025-09-28T13:03:33Z</time>
      </trkpt>
      <trkpt lat="44.80845" lon="5.45663">
        <ele>1143</ele>
        <time>2025-09-28T13:03:54Z</time>
      </trkpt>
      <trkpt lat="44.80854" lon="5.45675">
        <ele>1137.4</ele>
        <time>2025-09-28T13:04:15Z</time>
      </trkpt>
      <trkpt lat="44.8086" lon="5.45655">
        <ele>1131</ele>
        <time>2025-09-28T13:04:36Z</time>
      </trkpt>
      <trkpt lat="44.80854" lon="5.45636">
        <ele>1126.3</ele>
        <time>2025-09-28T13:04:57Z</time>
      </trkpt>
      <trkpt lat="44.80865" lon="5.45638">
        <ele>1121.4</ele>
        <time>2025-09-28T13:05:18Z</time>
      </trkpt>
      <trkpt lat="44.8088" lon="5.45653">
        <ele>1114.8</ele>
        <time>2025-09-28T13:05:39Z</time>
      </trkpt>
      <trkpt lat="44.80896" lon="5.45675">
        <ele>1109</ele>
        <time>2025-09-28T13:06:00Z</time>
      </trkpt>
      <trkpt lat="44.80894" lon="5.45652">
        <ele>1102.9</ele>
        <time>2025-09-28T13:06:21Z</time>
      </trkpt>
      <trkpt lat="44.8089" lon="5.45628">
        <ele>1098.7</ele>
        <time>2025-09-28T13:06:42Z</time>
      </trkpt>
      <trkpt lat="44.80894" lon="5.45618">
        <ele>1092.2</ele>
        <time>2025-09-28T13:07:03Z</time>
      </trkpt>
      <trkpt lat="44.8091" lon="5.45627">
        <ele>1087.2</ele>
        <time>2025-09-28T13:07:24Z</time>
      </trkpt>
      <trkpt lat="44.80919" lon="5.45636">
        <ele>1084.7</ele>
        <time>2025-09-28T13:07:45Z</time>
      </trkpt>
      <trkpt lat="44.80919" lon="5.45636">
        <ele>1084.4</ele>
        <time>2025-09-28T13:08:06Z</time>
      </trkpt>
      <trkpt lat="44.80919" lon="5.45636">
        <ele>1083.1</ele>
        <time>2025-09-28T13:08:27Z</time>
      </trkpt>
      <trkpt lat="44.80927" lon="5.45646">
        <ele>1080.5</ele>
        <time>2025-09-28T13:08:48Z</time>
      </trkpt>
      <trkpt lat="44.80937" lon="5.45651">
        <ele>1072.7</ele>
        <time>2025-09-28T13:09:09Z</time>
      </trkpt>
      <trkpt lat="44.80939" lon="5.45631">
        <ele>1069.3</ele>
        <time>2025-09-28T13:09:30Z</time>
      </trkpt>
      <trkpt lat="44.8095" lon="5.45631">
        <ele>1063.6</ele>
        <time>2025-09-28T13:09:51Z</time>
      </trkpt>
      <trkpt lat="44.80965" lon="5.45656">
        <ele>1055.8</ele>
        <time>2025-09-28T13:10:12Z</time>
      </trkpt>
      <trkpt lat="44.80975" lon="5.45647">
        <ele>1052.8</ele>
        <time>2025-09-28T13:10:33Z</time>
      </trkpt>
      <trkpt lat="44.80973" lon="5.45613">
        <ele>1050.9</ele>
        <time>2025-09-28T13:10:54Z</time>
      </trkpt>
      <trkpt lat="44.8096" lon="5.45583">
        <ele>1048</ele>
        <time>2025-09-28T13:11:15Z</time>
      </trkpt>
      <trkpt lat="44.80959" lon="5.45554">
        <ele>1046</ele>
        <time>2025-09-28T13:11:36Z</time>
      </trkpt>
      <trkpt lat="44.80951" lon="5.45548">
        <ele>1044.2</ele>
        <time>2025-09-28T13:11:57Z</time>
      </trkpt>
      <trkpt lat="44.80947" lon="5.45551">
        <ele>1042.4</ele>
        <time>2025-09-28T13:12:18Z</time>
      </trkpt>
      <trkpt lat="44.8095" lon="5.45552">
        <ele>1037.5</ele>
        <time>2025-09-28T13:13:21Z</time>
      </trkpt>
      <trkpt lat="44.80961" lon="5.45554">
        <ele>1039.5</ele>
        <time>2025-09-28T13:13:42Z</time>
      </trkpt>
      <trkpt lat="44.8097" lon="5.45553">
        <ele>1040.3</ele>
        <time>2025-09-28T13:14:03Z</time>
      </trkpt>
      <trkpt lat="44.80971" lon="5.45551">
        <ele>1040.7</ele>
        <time>2025-09-28T13:14:24Z</time>
      </trkpt>
      <trkpt lat="44.80971" lon="5.45551">
        <ele>1040.6</ele>
        <time>2025-09-28T13:14:45Z</time>
      </trkpt>
      <trkpt lat="44.8097" lon="5.4555">
        <ele>1040.8</ele>
        <time>2025-09-28T13:15:06Z</time>
      </trkpt>
      <trkpt lat="44.80961" lon="5.45542">
        <ele>1040.9</ele>
        <time>2025-09-28T13:15:27Z</time>
      </trkpt>
      <trkpt lat="44.80951" lon="5.45535">
        <ele>1040.7</ele>
        <time>2025-09-28T13:15:48Z</time>
      </trkpt>
      <trkpt lat="44.80929" lon="5.45537">
        <ele>1042.2</ele>
        <time>2025-09-28T13:16:09Z</time>
      </trkpt>
      <trkpt lat="44.80903" lon="5.45533">
        <ele>1045.4</ele>
        <time>2025-09-28T13:16:30Z</time>
      </trkpt>
      <trkpt lat="44.8088" lon="5.45528">
        <ele>1051.4</ele>
        <time>2025-09-28T13:16:51Z</time>
      </trkpt>
      <trkpt lat="44.80858" lon="5.45539">
        <ele>1055.3</ele>
        <time>2025-09-28T13:17:12Z</time>
      </trkpt>
      <trkpt lat="44.80834" lon="5.45543">
        <ele>1058.9</ele>
        <time>2025-09-28T13:17:33Z</time>
      </trkpt>
      <trkpt lat="44.8081" lon="5.45537">
        <ele>1062.6</ele>
        <time>2025-09-28T13:17:54Z</time>
      </trkpt>
      <trkpt lat="44.80787" lon="5.45537">
        <ele>1065.6</ele>
        <time>2025-09-28T13:18:15Z</time>
      </trkpt>
      <trkpt lat="44.80776" lon="5.45511">
        <ele>1064.9</ele>
        <time>2025-09-28T13:18:36Z</time>
      </trkpt>
      <trkpt lat="44.80784" lon="5.45487">
        <ele>1062.3</ele>
        <time>2025-09-28T13:18:57Z</time>
      </trkpt>
      <trkpt lat="44.80801" lon="5.45463">
        <ele>1062.6</ele>
        <time>2025-09-28T13:19:18Z</time>
      </trkpt>
      <trkpt lat="44.8082" lon="5.4544">
        <ele>1062.5</ele>
        <time>2025-09-28T13:19:39Z</time>
      </trkpt>
      <trkpt lat="44.8082" lon="5.45408">
        <ele>1065.6</ele>
        <time>2025-09-28T13:20:00Z</time>
      </trkpt>
      <trkpt lat="44.80813" lon="5.45369">
        <ele>1070.9</ele>
        <time>2025-09-28T13:20:21Z</time>
      </trkpt>
      <trkpt lat="44.80827" lon="5.4534">
        <ele>1069.2</ele>
        <time>2025-09-28T13:20:42Z</time>
      </trkpt>
      <trkpt lat="44.80837" lon="5.45305">
        <ele>1068.6</ele>
        <time>2025-09-28T13:21:03Z</time>
      </trkpt>
      <trkpt lat="44.80847" lon="5.45273">
        <ele>1070.6</ele>
        <time>2025-09-28T13:21:24Z</time>
      </trkpt>
      <trkpt lat="44.80854" lon="5.45239">
        <ele>1073.5</ele>
        <time>2025-09-28T13:21:45Z</time>
      </trkpt>
      <trkpt lat="44.80855" lon="5.45202">
        <ele>1075.8</ele>
        <time>2025-09-28T13:22:06Z</time>
      </trkpt>
      <trkpt lat="44.80865" lon="5.45173">
        <ele>1076.1</ele>
        <time>2025-09-28T13:22:27Z</time>
      </trkpt>
      <trkpt lat="44.80867" lon="5.45151">
        <ele>1078</ele>
        <time>2025-09-28T13:24:12Z</time>
      </trkpt>
      <trkpt lat="44.8087" lon="5.45119">
        <ele>1080.4</ele>
        <time>2025-09-28T13:24:33Z</time>
      </trkpt>
      <trkpt lat="44.80875" lon="5.45084">
        <ele>1081.8</ele>
        <time>2025-09-28T13:24:54Z</time>
      </trkpt>
      <trkpt lat="44.80859" lon="5.45061">
        <ele>1079.1</ele>
        <time>2025-09-28T13:25:15Z</time>
      </trkpt>
      <trkpt lat="44.80836" lon="5.45043">
        <ele>1075.6</ele>
        <time>2025-09-28T13:25:36Z</time>
      </trkpt>
      <trkpt lat="44.80813" lon="5.45035">
        <ele>1075.8</ele>
        <time>2025-09-28T13:25:57Z</time>
      </trkpt>
      <trkpt lat="44.80786" lon="5.45032">
        <ele>1075.2</ele>
        <time>2025-09-28T13:26:18Z</time>
      </trkpt>
      <trkpt lat="44.80763" lon="5.45015">
        <ele>1072.3</ele>
        <time>2025-09-28T13:26:39Z</time>
      </trkpt>
      <trkpt lat="44.80736" lon="5.45007">
        <ele>1069.2</ele>
        <time>2025-09-28T13:27:00Z</time>
      </trkpt>
      <trkpt lat="44.80713" lon="5.44988">
        <ele>1063.2</ele>
        <time>2025-09-28T13:27:21Z</time>
      </trkpt>
      <trkpt lat="44.80691" lon="5.44969">
        <ele>1059.1</ele>
        <time>2025-09-28T13:27:42Z</time>
      </trkpt>
      <trkpt lat="44.80695" lon="5.44925">
        <ele>1056.7</ele>
        <time>2025-09-28T13:28:03Z</time>
      </trkpt>
      <trkpt lat="44.80699" lon="5.44889">
        <ele>1053.9</ele>
        <time>2025-09-28T13:28:24Z</time>
      </trkpt>
      <trkpt lat="44.80694" lon="5.44852">
        <ele>1049.7</ele>
        <time>2025-09-28T13:28:45Z</time>
      </trkpt>
      <trkpt lat="44.80671" lon="5.44836">
        <ele>1045.7</ele>
        <time>2025-09-28T13:29:06Z</time>
      </trkpt>
      <trkpt lat="44.80649" lon="5.44811">
        <ele>1041.9</ele>
        <time>2025-09-28T13:29:27Z</time>
      </trkpt>
      <trkpt lat="44.80632" lon="5.44779">
        <ele>1034.2</ele>
        <time>2025-09-28T13:29:48Z</time>
      </trkpt>
      <trkpt lat="44.80611" lon="5.44752">
        <ele>1030.6</ele>
        <time>2025-09-28T13:30:09Z</time>
      </trkpt>
      <trkpt lat="44.80593" lon="5.44723">
        <ele>1025.6</ele>
        <time>2025-09-28T13:30:30Z</time>
      </trkpt>
      <trkpt lat="44.80584" lon="5.44682">
        <ele>1024.5</ele>
        <time>2025-09-28T13:30:51Z</time>
      </trkpt>
      <trkpt lat="44.80579" lon="5.44641">
        <ele>1021.2</ele>
        <time>2025-09-28T13:31:12Z</time>
      </trkpt>
      <trkpt lat="44.80574" lon="5.44601">
        <ele>1019.3</ele>
        <time>2025-09-28T13:31:33Z</time>
      </trkpt>
      <trkpt lat="44.8057" lon="5.44561">
        <ele>1016.6</ele>
        <time>2025-09-28T13:31:54Z</time>
      </trkpt>
      <trkpt lat="44.8057" lon="5.44522">
        <ele>1014.5</ele>
        <time>2025-09-28T13:32:15Z</time>
      </trkpt>
      <trkpt lat="44.80589" lon="5.44545">
        <ele>1010.7</ele>
        <time>2025-09-28T13:32:36Z</time>
      </trkpt>
      <trkpt lat="44.80598" lon="5.44582">
        <ele>1013</ele>
        <time>2025-09-28T13:32:57Z</time>
      </trkpt>
      <trkpt lat="44.80608" lon="5.44619">
        <ele>1008.9</ele>
        <time>2025-09-28T13:33:18Z</time>
      </trkpt>
      <trkpt lat="44.80621" lon="5.44649">
        <ele>1009.2</ele>
        <time>2025-09-28T13:33:39Z</time>
      </trkpt>
      <trkpt lat="44.80644" lon="5.44657">
        <ele>1006.4</ele>
        <time>2025-09-28T13:34:00Z</time>
      </trkpt>
      <trkpt lat="44.80647" lon="5.44649">
        <ele>1004.5</ele>
        <time>2025-09-28T13:34:21Z</time>
      </trkpt>
    </trkseg>
  </trk>
</gpx>